<?xml version='1.0' encoding='UTF-8'?><gpx version="1.1" creator="JPX - https://github.com/jenetics/jpx" xmlns="http://www.topografix.com/GPX/1/1"><trk><trkseg><trkpt lat="44.830617902575554" lon="4.809321586493664"><ele>96.0</ele><time>2026-04-22T15:28:34Z</time></trkpt><trkpt lat="44.830684605382984" lon="4.8092631395390475"><ele>96.0</ele><time>2026-04-22T15:28:36Z</time></trkpt><trkpt lat="44.83074324820811" lon="4.809196519114596"><ele>96.0</ele><time>2026-04-22T15:28:38Z</time></trkpt><trkpt lat="44.83083346746167" lon="4.809145741687696"><ele>96.0</ele><time>2026-04-22T15:28:40Z</time></trkpt><trkpt lat="44.830917590069326" lon="4.8090570959205134"><ele>96.0</ele><time>2026-04-22T15:28:42Z</time></trkpt><trkpt lat="44.83114936596303" lon="4.808941437969155"><ele>96.19999999999999</ele><time>2026-04-22T15:28:47Z</time></trkpt><trkpt lat="44.83120039312958" lon="4.80888648501207"><ele>96.39999999999999</ele><time>2026-04-22T15:28:48Z</time></trkpt><trkpt lat="44.831277143293306" lon="4.808809007842731"><ele>96.6</ele><time>2026-04-22T15:28:50Z</time></trkpt><trkpt lat="44.831366395964615" lon="4.808714344507958"><ele>96.8</ele><time>2026-04-22T15:28:52Z</time></trkpt><trkpt lat="44.83146246097748" lon="4.808631463763112"><ele>97.0</ele><time>2026-04-22T15:28:54Z</time></trkpt><trkpt lat="44.83155326163591" lon="4.808548210941217"><ele>97.33333333333334</ele><time>2026-04-22T15:28:56Z</time></trkpt><trkpt lat="44.83163534239193" lon="4.808464228127517"><ele>97.66666666666667</ele><time>2026-04-22T15:28:58Z</time></trkpt><trkpt lat="44.83170005608953" lon="4.808402802465109"><ele>98.0</ele><time>2026-04-22T15:29:00Z</time></trkpt><trkpt lat="44.83175175873441" lon="4.808328446954885"><ele>98.33333333333334</ele><time>2026-04-22T15:29:02Z</time></trkpt><trkpt lat="44.8317155188556" lon="4.808213970613044"><ele>98.66666666666667</ele><time>2026-04-22T15:29:04Z</time></trkpt><trkpt lat="44.831655364877456" lon="4.80811692423944"><ele>99.0</ele><time>2026-04-22T15:29:06Z</time></trkpt><trkpt lat="44.83160235748251" lon="4.808017510843079"><ele>99.0</ele><time>2026-04-22T15:29:08Z</time></trkpt><trkpt lat="44.8315334021903" lon="4.80792263647558"><ele>99.0</ele><time>2026-04-22T15:29:10Z</time></trkpt><trkpt lat="44.83146547582455" lon="4.8078300796828985"><ele>99.0</ele><time>2026-04-22T15:29:12Z</time></trkpt><trkpt lat="44.83139256729314" lon="4.807766127527701"><ele>99.0</ele><time>2026-04-22T15:29:14Z</time></trkpt><trkpt lat="44.8313240795229" lon="4.80770244736005"><ele>99.0</ele><time>2026-04-22T15:29:16Z</time></trkpt><trkpt lat="44.83124243706673" lon="4.807615221360975"><ele>98.83333333333333</ele><time>2026-04-22T15:29:18Z</time></trkpt><trkpt lat="44.831160106668484" lon="4.807545626544025"><ele>98.66666666666666</ele><time>2026-04-22T15:29:20Z</time></trkpt><trkpt lat="44.83106680883863" lon="4.807498461027733"><ele>98.5</ele><time>2026-04-22T15:29:22Z</time></trkpt><trkpt lat="44.83099759359363" lon="4.807427252769724"><ele>98.33333333333333</ele><time>2026-04-22T15:29:24Z</time></trkpt><trkpt lat="44.83092207866229" lon="4.8073673695097705"><ele>98.16666666666666</ele><time>2026-04-22T15:29:26Z</time></trkpt><trkpt lat="44.83085734107479" lon="4.807309425655394"><ele>98.0</ele><time>2026-04-22T15:29:28Z</time></trkpt><trkpt lat="44.83079878139233" lon="4.807238701961658"><ele>97.99999999999999</ele><time>2026-04-22T15:29:30Z</time></trkpt><trkpt lat="44.83071858783025" lon="4.807180218865058"><ele>98.0</ele><time>2026-04-22T15:29:32Z</time></trkpt><trkpt lat="44.83065249713387" lon="4.807126247116936"><ele>98.0</ele><time>2026-04-22T15:29:34Z</time></trkpt><trkpt lat="44.83057412738504" lon="4.807043687577025"><ele>98.0</ele><time>2026-04-22T15:29:37Z</time></trkpt><trkpt lat="44.83051082849232" lon="4.806967389379381"><ele>97.99999999999999</ele><time>2026-04-22T15:29:39Z</time></trkpt><trkpt lat="44.83048143228369" lon="4.806880342366272"><ele>98.0</ele><time>2026-04-22T15:29:41Z</time></trkpt><trkpt lat="44.830429084250305" lon="4.806790712829881"><ele>98.60000000000001</ele><time>2026-04-22T15:29:43Z</time></trkpt><trkpt lat="44.83034350381697" lon="4.806714232568783"><ele>99.2</ele><time>2026-04-22T15:29:45Z</time></trkpt><trkpt lat="44.83025387650597" lon="4.806671684697816"><ele>99.8</ele><time>2026-04-22T15:29:47Z</time></trkpt><trkpt lat="44.83016997964217" lon="4.806591106204016"><ele>100.4</ele><time>2026-04-22T15:29:49Z</time></trkpt><trkpt lat="44.83007413634928" lon="4.806513399016818"><ele>101.0</ele><time>2026-04-22T15:29:51Z</time></trkpt><trkpt lat="44.829986977954164" lon="4.8064440337325935"><ele>101.0</ele><time>2026-04-22T15:29:53Z</time></trkpt><trkpt lat="44.8298953407019" lon="4.806373131123699"><ele>101.0</ele><time>2026-04-22T15:29:55Z</time></trkpt><trkpt lat="44.82979645190878" lon="4.806287144934192"><ele>101.0</ele><time>2026-04-22T15:29:57Z</time></trkpt><trkpt lat="44.82970946854893" lon="4.806211425622066"><ele>101.0</ele><time>2026-04-22T15:29:59Z</time></trkpt><trkpt lat="44.82962087022992" lon="4.806135247950108"><ele>101.0</ele><time>2026-04-22T15:30:01Z</time></trkpt><trkpt lat="44.82953594823025" lon="4.806060744261504"><ele>102.19999999999999</ele><time>2026-04-22T15:30:03Z</time></trkpt><trkpt lat="44.829449037540954" lon="4.805994173835061"><ele>103.39999999999999</ele><time>2026-04-22T15:30:05Z</time></trkpt><trkpt lat="44.82935726891263" lon="4.805933342494001"><ele>104.6</ele><time>2026-04-22T15:30:07Z</time></trkpt><trkpt lat="44.82926021358929" lon="4.80586949021699"><ele>105.8</ele><time>2026-04-22T15:30:09Z</time></trkpt><trkpt lat="44.82916190002536" lon="4.805806499583506"><ele>107.0</ele><time>2026-04-22T15:30:11Z</time></trkpt><trkpt lat="44.82905530340911" lon="4.805744422182473"><ele>107.0</ele><time>2026-04-22T15:30:13Z</time></trkpt><trkpt lat="44.82895250164756" lon="4.805682457562025"><ele>106.99999999999999</ele><time>2026-04-22T15:30:15Z</time></trkpt><trkpt lat="44.82885792325529" lon="4.805623251713707"><ele>106.99999999999999</ele><time>2026-04-22T15:30:17Z</time></trkpt><trkpt lat="44.82876010155773" lon="4.8055469054063344"><ele>107.0</ele><time>2026-04-22T15:30:19Z</time></trkpt><trkpt lat="44.82866998371628" lon="4.805468368984019"><ele>107.0</ele><time>2026-04-22T15:30:21Z</time></trkpt><trkpt lat="44.828577068747286" lon="4.805398978704904"><ele>107.0</ele><time>2026-04-22T15:30:23Z</time></trkpt><trkpt lat="44.828495415049545" lon="4.805325474804053"><ele>106.99999999999999</ele><time>2026-04-22T15:30:25Z</time></trkpt><trkpt lat="44.828401724379894" lon="4.805251588749976"><ele>106.99999999999999</ele><time>2026-04-22T15:30:27Z</time></trkpt><trkpt lat="44.828328115121835" lon="4.8051797807833605"><ele>107.0</ele><time>2026-04-22T15:30:29Z</time></trkpt><trkpt lat="44.828245159412184" lon="4.805097345170531"><ele>107.0</ele><time>2026-04-22T15:30:31Z</time></trkpt><trkpt lat="44.82816261002478" lon="4.805025822790208"><ele>107.8</ele><time>2026-04-22T15:30:33Z</time></trkpt><trkpt lat="44.82807358416694" lon="4.80498080632862"><ele>108.6</ele><time>2026-04-22T15:30:35Z</time></trkpt><trkpt lat="44.827997018777026" lon="4.804930663901931"><ele>109.39999999999999</ele><time>2026-04-22T15:30:37Z</time></trkpt><trkpt lat="44.82791067345058" lon="4.804836002817931"><ele>110.19999999999999</ele><time>2026-04-22T15:30:39Z</time></trkpt><trkpt lat="44.827817689355555" lon="4.8047691192437565"><ele>111.0</ele><time>2026-04-22T15:30:41Z</time></trkpt><trkpt lat="44.82772200213894" lon="4.804680209582642"><ele>110.8</ele><time>2026-04-22T15:30:43Z</time></trkpt><trkpt lat="44.82763639056635" lon="4.804599995345853"><ele>110.6</ele><time>2026-04-22T15:30:45Z</time></trkpt><trkpt lat="44.827545324178494" lon="4.80451757465987"><ele>110.4</ele><time>2026-04-22T15:30:47Z</time></trkpt><trkpt lat="44.82745876960428" lon="4.804436035508393"><ele>110.2</ele><time>2026-04-22T15:30:49Z</time></trkpt><trkpt lat="44.82738397576381" lon="4.804335881548434"><ele>110.0</ele><time>2026-04-22T15:30:51Z</time></trkpt><trkpt lat="44.82730156597158" lon="4.80424533130285"><ele>110.0</ele><time>2026-04-22T15:30:53Z</time></trkpt><trkpt lat="44.82721716753036" lon="4.804170158983032"><ele>110.0</ele><time>2026-04-22T15:30:55Z</time></trkpt><trkpt lat="44.827150186885724" lon="4.8040676941408105"><ele>110.0</ele><time>2026-04-22T15:30:57Z</time></trkpt><trkpt lat="44.827088877470466" lon="4.803985132233062"><ele>110.0</ele><time>2026-04-22T15:30:59Z</time></trkpt><trkpt lat="44.827018891447054" lon="4.80390497580453"><ele>110.0</ele><time>2026-04-22T15:31:01Z</time></trkpt><trkpt lat="44.82695406555872" lon="4.803836599849849"><ele>109.99999999999999</ele><time>2026-04-22T15:31:03Z</time></trkpt><trkpt lat="44.82691143106957" lon="4.803764999736068"><ele>110.0</ele><time>2026-04-22T15:31:06Z</time></trkpt><trkpt lat="44.82684885785694" lon="4.803707811634229"><ele>110.0</ele><time>2026-04-22T15:31:16Z</time></trkpt><trkpt lat="44.82679887125079" lon="4.803623771806701"><ele>110.0</ele><time>2026-04-22T15:31:18Z</time></trkpt><trkpt lat="44.826727470822675" lon="4.803532221331961"><ele>109.99999999999999</ele><time>2026-04-22T15:31:20Z</time></trkpt><trkpt lat="44.82667129987678" lon="4.803441858414998"><ele>110.0</ele><time>2026-04-22T15:31:22Z</time></trkpt><trkpt lat="44.82658587809477" lon="4.803349093899928"><ele>108.8</ele><time>2026-04-22T15:31:24Z</time></trkpt><trkpt lat="44.82651557842654" lon="4.803237533734715"><ele>107.6</ele><time>2026-04-22T15:31:26Z</time></trkpt><trkpt lat="44.8264570088559" lon="4.80312728188492"><ele>106.4</ele><time>2026-04-22T15:31:28Z</time></trkpt><trkpt lat="44.82640769885133" lon="4.803024168521231"><ele>105.2</ele><time>2026-04-22T15:31:30Z</time></trkpt><trkpt lat="44.82634964263729" lon="4.8029192049595935"><ele>104.0</ele><time>2026-04-22T15:31:32Z</time></trkpt><trkpt lat="44.82629231141299" lon="4.802854237864167"><ele>104.0</ele><time>2026-04-22T15:31:34Z</time></trkpt><trkpt lat="44.82621413452297" lon="4.802814077436469"><ele>104.0</ele><time>2026-04-22T15:31:37Z</time></trkpt><trkpt lat="44.82611603188016" lon="4.802759882402014"><ele>104.0</ele><time>2026-04-22T15:31:39Z</time></trkpt><trkpt lat="44.82602173238709" lon="4.802829689895514"><ele>104.0</ele><time>2026-04-22T15:31:41Z</time></trkpt><trkpt lat="44.825969593806846" lon="4.802882080739468"><ele>104.0</ele><time>2026-04-22T15:31:42Z</time></trkpt><trkpt lat="44.82588612468104" lon="4.802982818117729"><ele>103.16666666666666</ele><time>2026-04-22T15:31:44Z</time></trkpt><trkpt lat="44.82583613021589" lon="4.803045117831756"><ele>102.33333333333333</ele><time>2026-04-22T15:31:45Z</time></trkpt><trkpt lat="44.825718368314014" lon="4.803074564072765"><ele>101.5</ele><time>2026-04-22T15:31:47Z</time></trkpt><trkpt lat="44.82565647990517" lon="4.803039851888986"><ele>100.66666666666666</ele><time>2026-04-22T15:31:48Z</time></trkpt><trkpt lat="44.82561371318202" lon="4.802971011886697"><ele>99.83333333333333</ele><time>2026-04-22T15:31:49Z</time></trkpt><trkpt lat="44.82557388009062" lon="4.802839018810282"><ele>99.0</ele><time>2026-04-22T15:31:51Z</time></trkpt><trkpt lat="44.82552132190334" lon="4.802716777136174"><ele>98.80000000000001</ele><time>2026-04-22T15:31:53Z</time></trkpt><trkpt lat="44.82545623670377" lon="4.802624948447104"><ele>98.60000000000001</ele><time>2026-04-22T15:31:55Z</time></trkpt><trkpt lat="44.82535899640574" lon="4.802615804158875"><ele>98.4</ele><time>2026-04-22T15:31:57Z</time></trkpt><trkpt lat="44.82526032269727" lon="4.802649080672126"><ele>98.2</ele><time>2026-04-22T15:31:59Z</time></trkpt><trkpt lat="44.82515736265055" lon="4.802655368667597"><ele>98.0</ele><time>2026-04-22T15:32:01Z</time></trkpt><trkpt lat="44.82504912867058" lon="4.802664404148774"><ele>97.80000000000001</ele><time>2026-04-22T15:32:03Z</time></trkpt><trkpt lat="44.82494835531332" lon="4.802693970152582"><ele>97.6</ele><time>2026-04-22T15:32:05Z</time></trkpt><trkpt lat="44.82484997696414" lon="4.8027267047072995"><ele>97.4</ele><time>2026-04-22T15:32:07Z</time></trkpt><trkpt lat="44.82474031891261" lon="4.802740608470983"><ele>97.19999999999999</ele><time>2026-04-22T15:32:09Z</time></trkpt><trkpt lat="44.82463327481993" lon="4.802755752578368"><ele>97.0</ele><time>2026-04-22T15:32:11Z</time></trkpt><trkpt lat="44.82452979571904" lon="4.802781275746074"><ele>97.0</ele><time>2026-04-22T15:32:13Z</time></trkpt><trkpt lat="44.8244256314092" lon="4.802810782408783"><ele>97.0</ele><time>2026-04-22T15:32:15Z</time></trkpt><trkpt lat="44.82432154076987" lon="4.802845295430024"><ele>97.0</ele><time>2026-04-22T15:32:17Z</time></trkpt><trkpt lat="44.824218133636876" lon="4.802886420266359"><ele>97.0</ele><time>2026-04-22T15:32:19Z</time></trkpt><trkpt lat="44.824132319417785" lon="4.802950061922419"><ele>97.0</ele><time>2026-04-22T15:32:21Z</time></trkpt><trkpt lat="44.82404158570604" lon="4.80300389443406"><ele>96.66666666666667</ele><time>2026-04-22T15:32:23Z</time></trkpt><trkpt lat="44.82397292218696" lon="4.803073504124458"><ele>96.33333333333334</ele><time>2026-04-22T15:32:25Z</time></trkpt><trkpt lat="44.82389698231556" lon="4.803130021803099"><ele>96.0</ele><time>2026-04-22T15:32:27Z</time></trkpt><trkpt lat="44.82381045390936" lon="4.803176897722185"><ele>95.66666666666667</ele><time>2026-04-22T15:32:29Z</time></trkpt><trkpt lat="44.823731787169486" lon="4.803225278092176"><ele>95.33333333333334</ele><time>2026-04-22T15:32:31Z</time></trkpt><trkpt lat="44.82366226571205" lon="4.803257376477136"><ele>95.0</ele><time>2026-04-22T15:32:33Z</time></trkpt><trkpt lat="44.82359636946356" lon="4.803289777708852"><ele>95.0</ele><time>2026-04-22T15:32:35Z</time></trkpt><trkpt lat="44.82351280048652" lon="4.803323057514907"><ele>95.0</ele><time>2026-04-22T15:32:38Z</time></trkpt><trkpt lat="44.8234346600506" lon="4.803372969995145"><ele>95.0</ele><time>2026-04-22T15:32:42Z</time></trkpt><trkpt lat="44.82336126594714" lon="4.803385142175722"><ele>95.0</ele><time>2026-04-22T15:32:44Z</time></trkpt><trkpt lat="44.82329425469441" lon="4.8033210775956015"><ele>95.0</ele><time>2026-04-22T15:32:46Z</time></trkpt><trkpt lat="44.82328099719406" lon="4.803224574447274"><ele>95.0</ele><time>2026-04-22T15:32:48Z</time></trkpt><trkpt lat="44.82326896561166" lon="4.803115320493607"><ele>95.2</ele><time>2026-04-22T15:32:50Z</time></trkpt><trkpt lat="44.82324982993693" lon="4.802993000284188"><ele>95.4</ele><time>2026-04-22T15:32:52Z</time></trkpt><trkpt lat="44.82325610744053" lon="4.802872136780964"><ele>95.6</ele><time>2026-04-22T15:32:54Z</time></trkpt><trkpt lat="44.82330202629889" lon="4.802752784239434"><ele>95.8</ele><time>2026-04-22T15:32:56Z</time></trkpt><trkpt lat="44.8233431796042" lon="4.802623999683734"><ele>96.0</ele><time>2026-04-22T15:32:58Z</time></trkpt><trkpt lat="44.82337642045502" lon="4.802498026592876"><ele>96.0</ele><time>2026-04-22T15:33:00Z</time></trkpt><trkpt lat="44.82342070944278" lon="4.802378541501874"><ele>96.0</ele><time>2026-04-22T15:33:02Z</time></trkpt><trkpt lat="44.823461808011125" lon="4.802250830221319"><ele>96.0</ele><time>2026-04-22T15:33:04Z</time></trkpt><trkpt lat="44.82350262172898" lon="4.802123437298369"><ele>96.0</ele><time>2026-04-22T15:33:06Z</time></trkpt><trkpt lat="44.823545522245446" lon="4.801977748733388"><ele>96.0</ele><time>2026-04-22T15:33:08Z</time></trkpt><trkpt lat="44.82359427911206" lon="4.801849197432251"><ele>96.19999999999999</ele><time>2026-04-22T15:33:10Z</time></trkpt><trkpt lat="44.82365090273578" lon="4.801713704029084"><ele>96.39999999999999</ele><time>2026-04-22T15:33:12Z</time></trkpt><trkpt lat="44.82369627974376" lon="4.801567729651842"><ele>96.6</ele><time>2026-04-22T15:33:14Z</time></trkpt><trkpt lat="44.823744196007425" lon="4.801432067822694"><ele>96.8</ele><time>2026-04-22T15:33:16Z</time></trkpt><trkpt lat="44.82380311198624" lon="4.801291815043939"><ele>97.0</ele><time>2026-04-22T15:33:18Z</time></trkpt><trkpt lat="44.82386387303869" lon="4.801161848747567"><ele>97.00000000000001</ele><time>2026-04-22T15:33:20Z</time></trkpt><trkpt lat="44.82391522225959" lon="4.801031298943461"><ele>97.0</ele><time>2026-04-22T15:33:22Z</time></trkpt><trkpt lat="44.82396308569074" lon="4.800944550504739"><ele>97.0</ele><time>2026-04-22T15:33:24Z</time></trkpt><trkpt lat="44.82396184118801" lon="4.80084553405623"><ele>97.0</ele><time>2026-04-22T15:33:28Z</time></trkpt><trkpt lat="44.82390307508543" lon="4.800811983251888"><ele>97.00000000000001</ele><time>2026-04-22T15:33:30Z</time></trkpt><trkpt lat="44.82380245014679" lon="4.800827501936688"><ele>97.0</ele><time>2026-04-22T15:33:33Z</time></trkpt><trkpt lat="44.82371526165634" lon="4.800842380182408"><ele>97.16666666666667</ele><time>2026-04-22T15:33:35Z</time></trkpt><trkpt lat="44.823607654829935" lon="4.800866632294124"><ele>97.33333333333334</ele><time>2026-04-22T15:33:37Z</time></trkpt><trkpt lat="44.82351764770122" lon="4.800890776024703"><ele>97.5</ele><time>2026-04-22T15:33:39Z</time></trkpt><trkpt lat="44.823439459028954" lon="4.8009083836775215"><ele>97.66666666666666</ele><time>2026-04-22T15:33:41Z</time></trkpt><trkpt lat="44.82347792661438" lon="4.800831616659421"><ele>97.83333333333333</ele><time>2026-04-22T15:33:48Z</time></trkpt><trkpt lat="44.82354153752136" lon="4.800820701344045"><ele>98.0</ele><time>2026-04-22T15:33:51Z</time></trkpt><trkpt lat="44.82360087742245" lon="4.800790132794429"><ele>97.99999999999999</ele><time>2026-04-22T15:33:53Z</time></trkpt><trkpt lat="44.823664463874564" lon="4.800755142290899"><ele>98.0</ele><time>2026-04-22T15:33:55Z</time></trkpt><trkpt lat="44.82373672056817" lon="4.800706415354458"><ele>98.0</ele><time>2026-04-22T15:33:57Z</time></trkpt><trkpt lat="44.82381103351638" lon="4.800662260053114"><ele>98.0</ele><time>2026-04-22T15:33:59Z</time></trkpt><trkpt lat="44.82389585555629" lon="4.80060611727634"><ele>97.99999999999999</ele><time>2026-04-22T15:34:01Z</time></trkpt><trkpt lat="44.82398145321612" lon="4.800537484205108"><ele>98.0</ele><time>2026-04-22T15:34:03Z</time></trkpt><trkpt lat="44.824075975616466" lon="4.800463167686593"><ele>98.0</ele><time>2026-04-22T15:34:05Z</time></trkpt><trkpt lat="44.82415776091722" lon="4.800400554469056"><ele>98.0</ele><time>2026-04-22T15:34:07Z</time></trkpt><trkpt lat="44.82424541134767" lon="4.800342138327762"><ele>98.0</ele><time>2026-04-22T15:34:09Z</time></trkpt><trkpt lat="44.824334469078714" lon="4.8002747740113305"><ele>98.0</ele><time>2026-04-22T15:34:11Z</time></trkpt><trkpt lat="44.824409023384895" lon="4.800220614396165"><ele>98.0</ele><time>2026-04-22T15:34:13Z</time></trkpt><trkpt lat="44.824488299106946" lon="4.800157339069793"><ele>97.66666666666666</ele><time>2026-04-22T15:34:15Z</time></trkpt><trkpt lat="44.82457626736351" lon="4.800078533665327"><ele>97.33333333333333</ele><time>2026-04-22T15:34:17Z</time></trkpt><trkpt lat="44.824661480349356" lon="4.800019335299502"><ele>97.0</ele><time>2026-04-22T15:34:19Z</time></trkpt><trkpt lat="44.82474596746169" lon="4.800008594542603"><ele>96.66666666666666</ele><time>2026-04-22T15:34:21Z</time></trkpt><trkpt lat="44.82478168848612" lon="4.799915770037576"><ele>96.33333333333333</ele><time>2026-04-22T15:34:26Z</time></trkpt><trkpt lat="44.824752172505335" lon="4.799837302650703"><ele>96.0</ele><time>2026-04-22T15:34:28Z</time></trkpt><trkpt lat="44.82470234841089" lon="4.799745973851827"><ele>96.0</ele><time>2026-04-22T15:34:30Z</time></trkpt><trkpt lat="44.8246524800597" lon="4.7996395423021925"><ele>96.0</ele><time>2026-04-22T15:34:32Z</time></trkpt><trkpt lat="44.82459250704161" lon="4.7995166868082055"><ele>96.0</ele><time>2026-04-22T15:34:34Z</time></trkpt><trkpt lat="44.824526321094275" lon="4.799383818954388"><ele>96.0</ele><time>2026-04-22T15:34:36Z</time></trkpt><trkpt lat="44.82446035558309" lon="4.799256882229311"><ele>96.0</ele><time>2026-04-22T15:34:38Z</time></trkpt><trkpt lat="44.8243886943077" lon="4.799120256813753"><ele>95.8</ele><time>2026-04-22T15:34:40Z</time></trkpt><trkpt lat="44.82432179964871" lon="4.798992340311282"><ele>95.6</ele><time>2026-04-22T15:34:42Z</time></trkpt><trkpt lat="44.824258649258326" lon="4.798866305921349"><ele>95.4</ele><time>2026-04-22T15:34:44Z</time></trkpt><trkpt lat="44.82419122958531" lon="4.798738692134619"><ele>95.2</ele><time>2026-04-22T15:34:46Z</time></trkpt><trkpt lat="44.82412237712484" lon="4.7986116773101966"><ele>95.0</ele><time>2026-04-22T15:34:48Z</time></trkpt><trkpt lat="44.82406503021274" lon="4.798489541278053"><ele>95.6</ele><time>2026-04-22T15:34:50Z</time></trkpt><trkpt lat="44.824005735031115" lon="4.798375216510578"><ele>96.2</ele><time>2026-04-22T15:34:52Z</time></trkpt><trkpt lat="44.82394578946728" lon="4.798247465105262"><ele>96.80000000000001</ele><time>2026-04-22T15:34:54Z</time></trkpt><trkpt lat="44.82389609185569" lon="4.798138422326251"><ele>97.4</ele><time>2026-04-22T15:34:56Z</time></trkpt><trkpt lat="44.82383301836166" lon="4.798095864674788"><ele>98.0</ele><time>2026-04-22T15:34:59Z</time></trkpt><trkpt lat="44.82376588686117" lon="4.798170889608053"><ele>98.0</ele><time>2026-04-22T15:35:01Z</time></trkpt><trkpt lat="44.823741827056516" lon="4.798292585090904"><ele>98.0</ele><time>2026-04-22T15:35:03Z</time></trkpt><trkpt lat="44.823708549171165" lon="4.798415725109673"><ele>98.0</ele><time>2026-04-22T15:35:05Z</time></trkpt><trkpt lat="44.8236468581528" lon="4.798533534848013"><ele>98.0</ele><time>2026-04-22T15:35:07Z</time></trkpt><trkpt lat="44.82357804931854" lon="4.798684717375535"><ele>98.0</ele><time>2026-04-22T15:35:09Z</time></trkpt><trkpt lat="44.82353694880117" lon="4.7987714443124805"><ele>97.83333333333333</ele><time>2026-04-22T15:35:10Z</time></trkpt><trkpt lat="44.82348275269754" lon="4.798863433787469"><ele>97.66666666666666</ele><time>2026-04-22T15:35:11Z</time></trkpt><trkpt lat="44.82343308736114" lon="4.7989643716706505"><ele>97.5</ele><time>2026-04-22T15:35:12Z</time></trkpt><trkpt lat="44.82337372347077" lon="4.799075634286001"><ele>97.33333333333334</ele><time>2026-04-22T15:35:13Z</time></trkpt><trkpt lat="44.823310289069454" lon="4.799157093715994"><ele>97.16666666666667</ele><time>2026-04-22T15:35:14Z</time></trkpt><trkpt lat="44.82324562737779" lon="4.799231297250971"><ele>97.0</ele><time>2026-04-22T15:35:15Z</time></trkpt><trkpt lat="44.823182743510785" lon="4.7992881460690375"><ele>97.14285714285714</ele><time>2026-04-22T15:35:16Z</time></trkpt><trkpt lat="44.82311059530726" lon="4.799339821657408"><ele>97.28571428571429</ele><time>2026-04-22T15:35:17Z</time></trkpt><trkpt lat="44.82304541601885" lon="4.799396776617987"><ele>97.42857142857143</ele><time>2026-04-22T15:35:18Z</time></trkpt><trkpt lat="44.82298509456635" lon="4.799464608008283"><ele>97.57142857142857</ele><time>2026-04-22T15:35:19Z</time></trkpt><trkpt lat="44.8229383087093" lon="4.799524902563646"><ele>97.71428571428572</ele><time>2026-04-22T15:35:20Z</time></trkpt><trkpt lat="44.82287753539886" lon="4.79957930451312"><ele>97.85714285714286</ele><time>2026-04-22T15:35:21Z</time></trkpt><trkpt lat="44.82281402290305" lon="4.7996164830687595"><ele>98.0</ele><time>2026-04-22T15:35:22Z</time></trkpt><trkpt lat="44.82274820462102" lon="4.7996164857919394"><ele>97.99999999999999</ele><time>2026-04-22T15:35:23Z</time></trkpt><trkpt lat="44.82268067255798" lon="4.79963298390426"><ele>98.0</ele><time>2026-04-22T15:35:24Z</time></trkpt><trkpt lat="44.82261681396919" lon="4.799660850682397"><ele>98.0</ele><time>2026-04-22T15:35:25Z</time></trkpt><trkpt lat="44.82255559887281" lon="4.799693027648293"><ele>98.0</ele><time>2026-04-22T15:35:26Z</time></trkpt><trkpt lat="44.8224922784696" lon="4.799731308929754"><ele>97.99999999999999</ele><time>2026-04-22T15:35:27Z</time></trkpt><trkpt lat="44.82238491913086" lon="4.799803020737907"><ele>98.0</ele><time>2026-04-22T15:35:29Z</time></trkpt><trkpt lat="44.822278745943734" lon="4.799870384578015"><ele>98.0</ele><time>2026-04-22T15:35:31Z</time></trkpt><trkpt lat="44.82217049924129" lon="4.799947212172221"><ele>98.0</ele><time>2026-04-22T15:35:33Z</time></trkpt><trkpt lat="44.8220770597516" lon="4.80005882499434"><ele>98.0</ele><time>2026-04-22T15:35:35Z</time></trkpt><trkpt lat="44.822012805423604" lon="4.800204224439947"><ele>98.0</ele><time>2026-04-22T15:35:37Z</time></trkpt><trkpt lat="44.82195304125501" lon="4.8003600128197705"><ele>97.83333333333333</ele><time>2026-04-22T15:35:39Z</time></trkpt><trkpt lat="44.8218710032899" lon="4.800490494360974"><ele>97.66666666666666</ele><time>2026-04-22T15:35:41Z</time></trkpt><trkpt lat="44.82182674050963" lon="4.800556269156202"><ele>97.5</ele><time>2026-04-22T15:35:42Z</time></trkpt><trkpt lat="44.82171668677801" lon="4.800645449007603"><ele>97.33333333333334</ele><time>2026-04-22T15:35:44Z</time></trkpt><trkpt lat="44.821659855257245" lon="4.8006869637654255"><ele>97.16666666666667</ele><time>2026-04-22T15:35:45Z</time></trkpt><trkpt lat="44.821598755114124" lon="4.800727890620129"><ele>97.0</ele><time>2026-04-22T15:35:46Z</time></trkpt><trkpt lat="44.82153653534363" lon="4.800765773440234"><ele>96.39999999999999</ele><time>2026-04-22T15:35:47Z</time></trkpt><trkpt lat="44.82147373844225" lon="4.8007973377033775"><ele>95.8</ele><time>2026-04-22T15:35:48Z</time></trkpt><trkpt lat="44.821410370311604" lon="4.8008170104796655"><ele>95.2</ele><time>2026-04-22T15:35:49Z</time></trkpt><trkpt lat="44.821343429973766" lon="4.800843069620154"><ele>94.6</ele><time>2026-04-22T15:35:50Z</time></trkpt><trkpt lat="44.821219734972324" lon="4.800898913993342"><ele>94.0</ele><time>2026-04-22T15:35:52Z</time></trkpt><trkpt lat="44.821101263210416" lon="4.800953248639789"><ele>94.0</ele><time>2026-04-22T15:35:54Z</time></trkpt><trkpt lat="44.82103291543773" lon="4.800968301037754"><ele>94.0</ele><time>2026-04-22T15:35:55Z</time></trkpt><trkpt lat="44.82095762656273" lon="4.800982985494201"><ele>94.0</ele><time>2026-04-22T15:35:56Z</time></trkpt><trkpt lat="44.82089001801187" lon="4.800990840809702"><ele>94.0</ele><time>2026-04-22T15:35:57Z</time></trkpt><trkpt lat="44.82082000799817" lon="4.800994613730544"><ele>94.0</ele><time>2026-04-22T15:35:58Z</time></trkpt><trkpt lat="44.82070138997121" lon="4.801025970435926"><ele>94.0</ele><time>2026-04-22T15:36:00Z</time></trkpt><trkpt lat="44.82059034715108" lon="4.8010560610768565"><ele>94.2</ele><time>2026-04-22T15:36:02Z</time></trkpt><trkpt lat="44.820520957305924" lon="4.8010681822963885"><ele>94.4</ele><time>2026-04-22T15:36:03Z</time></trkpt><trkpt lat="44.82045016172337" lon="4.801072368929175"><ele>94.6</ele><time>2026-04-22T15:36:04Z</time></trkpt><trkpt lat="44.82032945104724" lon="4.8010895656060955"><ele>94.8</ele><time>2026-04-22T15:36:06Z</time></trkpt><trkpt lat="44.82026576019954" lon="4.801101409072506"><ele>95.0</ele><time>2026-04-22T15:36:07Z</time></trkpt><trkpt lat="44.8201396580203" lon="4.80111645570549"><ele>95.0</ele><time>2026-04-22T15:36:09Z</time></trkpt><trkpt lat="44.82007588911889" lon="4.801117439043503"><ele>95.0</ele><time>2026-04-22T15:36:10Z</time></trkpt><trkpt lat="44.82001146330611" lon="4.801122982937245"><ele>95.0</ele><time>2026-04-22T15:36:11Z</time></trkpt><trkpt lat="44.81989106589939" lon="4.801142987465141"><ele>95.0</ele><time>2026-04-22T15:36:13Z</time></trkpt><trkpt lat="44.819778372994605" lon="4.80114801493498"><ele>95.0</ele><time>2026-04-22T15:36:15Z</time></trkpt><trkpt lat="44.81965759566522" lon="4.80115201642879"><ele>95.0</ele><time>2026-04-22T15:36:17Z</time></trkpt><trkpt lat="44.819524419727244" lon="4.80116487416275"><ele>95.0</ele><time>2026-04-22T15:36:19Z</time></trkpt><trkpt lat="44.81941111412857" lon="4.801186092247206"><ele>95.0</ele><time>2026-04-22T15:36:21Z</time></trkpt><trkpt lat="44.81929484320467" lon="4.801205192465422"><ele>95.0</ele><time>2026-04-22T15:36:23Z</time></trkpt><trkpt lat="44.81917964198963" lon="4.801226321773632"><ele>95.2</ele><time>2026-04-22T15:36:25Z</time></trkpt><trkpt lat="44.81907548042943" lon="4.801246132391881"><ele>95.4</ele><time>2026-04-22T15:36:27Z</time></trkpt><trkpt lat="44.819008561557155" lon="4.801251905650179"><ele>95.6</ele><time>2026-04-22T15:36:28Z</time></trkpt><trkpt lat="44.81888904422026" lon="4.801266542917769"><ele>95.8</ele><time>2026-04-22T15:36:30Z</time></trkpt><trkpt lat="44.81877294868111" lon="4.801278695174104"><ele>96.0</ele><time>2026-04-22T15:36:32Z</time></trkpt><trkpt lat="44.81866045059057" lon="4.801303411179939"><ele>96.0</ele><time>2026-04-22T15:36:34Z</time></trkpt><trkpt lat="44.818542568568695" lon="4.801315187663352"><ele>96.0</ele><time>2026-04-22T15:36:36Z</time></trkpt><trkpt lat="44.818425440437814" lon="4.801332764523956"><ele>96.0</ele><time>2026-04-22T15:36:38Z</time></trkpt><trkpt lat="44.81830344379956" lon="4.801353521517073"><ele>96.0</ele><time>2026-04-22T15:36:40Z</time></trkpt><trkpt lat="44.81818557354037" lon="4.801370530961533"><ele>95.8</ele><time>2026-04-22T15:36:42Z</time></trkpt><trkpt lat="44.81806494760377" lon="4.8013940448838035"><ele>95.6</ele><time>2026-04-22T15:36:44Z</time></trkpt><trkpt lat="44.81796185937624" lon="4.801412083473279"><ele>95.4</ele><time>2026-04-22T15:36:46Z</time></trkpt><trkpt lat="44.81784891390586" lon="4.801419425214996"><ele>95.2</ele><time>2026-04-22T15:36:48Z</time></trkpt><trkpt lat="44.81774134058656" lon="4.801448810794637"><ele>95.0</ele><time>2026-04-22T15:36:50Z</time></trkpt><trkpt lat="44.81763480662612" lon="4.801440724809499"><ele>95.0</ele><time>2026-04-22T15:36:52Z</time></trkpt><trkpt lat="44.81751714136981" lon="4.8014547474695695"><ele>95.0</ele><time>2026-04-22T15:36:54Z</time></trkpt><trkpt lat="44.81740662777252" lon="4.801465207070958"><ele>95.0</ele><time>2026-04-22T15:36:56Z</time></trkpt><trkpt lat="44.81729664774125" lon="4.801478175088034"><ele>95.0</ele><time>2026-04-22T15:36:58Z</time></trkpt><trkpt lat="44.81717918516816" lon="4.80147560947718"><ele>95.0</ele><time>2026-04-22T15:37:00Z</time></trkpt><trkpt lat="44.81706055155867" lon="4.801480250556836"><ele>95.0</ele><time>2026-04-22T15:37:02Z</time></trkpt><trkpt lat="44.81696020610134" lon="4.801482421041256"><ele>95.0</ele><time>2026-04-22T15:37:04Z</time></trkpt><trkpt lat="44.816848035980485" lon="4.801468793657328"><ele>95.0</ele><time>2026-04-22T15:37:06Z</time></trkpt><trkpt lat="44.8167367268543" lon="4.801413576551305"><ele>94.8</ele><time>2026-04-22T15:37:08Z</time></trkpt><trkpt lat="44.816657940175105" lon="4.801298445120031"><ele>94.6</ele><time>2026-04-22T15:37:10Z</time></trkpt><trkpt lat="44.81656930593223" lon="4.801191661523116"><ele>94.4</ele><time>2026-04-22T15:37:12Z</time></trkpt><trkpt lat="44.81648532309354" lon="4.80107931154922"><ele>94.2</ele><time>2026-04-22T15:37:14Z</time></trkpt><trkpt lat="44.81643642378521" lon="4.8010067489433865"><ele>94.0</ele><time>2026-04-22T15:37:15Z</time></trkpt><trkpt lat="44.8163664266165" lon="4.800877699193976"><ele>94.0</ele><time>2026-04-22T15:37:17Z</time></trkpt><trkpt lat="44.816319432398096" lon="4.8008140328950795"><ele>94.0</ele><time>2026-04-22T15:37:18Z</time></trkpt><trkpt lat="44.816249292472" lon="4.800688270585291"><ele>94.0</ele><time>2026-04-22T15:37:20Z</time></trkpt><trkpt lat="44.81617835683928" lon="4.800574500874112"><ele>94.0</ele><time>2026-04-22T15:37:22Z</time></trkpt><trkpt lat="44.81611874965742" lon="4.80043133127483"><ele>94.0</ele><time>2026-04-22T15:37:24Z</time></trkpt><trkpt lat="44.816042813633004" lon="4.8003127478672525"><ele>94.0</ele><time>2026-04-22T15:37:26Z</time></trkpt><trkpt lat="44.81598301012667" lon="4.800196643039634"><ele>94.0</ele><time>2026-04-22T15:37:28Z</time></trkpt><trkpt lat="44.81591200026356" lon="4.8000674486076"><ele>94.0</ele><time>2026-04-22T15:37:30Z</time></trkpt><trkpt lat="44.81583518688736" lon="4.79994673745337"><ele>94.0</ele><time>2026-04-22T15:37:32Z</time></trkpt><trkpt lat="44.815772624838225" lon="4.799841378329414"><ele>94.0</ele><time>2026-04-22T15:37:34Z</time></trkpt><trkpt lat="44.81568200762536" lon="4.7997244066476"><ele>94.0</ele><time>2026-04-22T15:37:36Z</time></trkpt><trkpt lat="44.815644953880664" lon="4.799652126116994"><ele>94.0</ele><time>2026-04-22T15:37:37Z</time></trkpt><trkpt lat="44.81556566983732" lon="4.79954027998211"><ele>94.0</ele><time>2026-04-22T15:37:39Z</time></trkpt><trkpt lat="44.81550598081319" lon="4.79941624682087"><ele>94.0</ele><time>2026-04-22T15:37:41Z</time></trkpt><trkpt lat="44.81550873079302" lon="4.7992927495411575"><ele>94.0</ele><time>2026-04-22T15:37:43Z</time></trkpt><trkpt lat="44.81556982199456" lon="4.799232405146327"><ele>94.0</ele><time>2026-04-22T15:37:45Z</time></trkpt><trkpt lat="44.81562462490519" lon="4.799182434572383"><ele>94.0</ele><time>2026-04-22T15:37:47Z</time></trkpt><trkpt lat="44.81567786657037" lon="4.799132049890146"><ele>94.0</ele><time>2026-04-22T15:37:49Z</time></trkpt><trkpt lat="44.81573770369582" lon="4.79910120624082"><ele>94.0</ele><time>2026-04-22T15:37:51Z</time></trkpt><trkpt lat="44.81575111930915" lon="4.798997235413897"><ele>94.0</ele><time>2026-04-22T15:37:54Z</time></trkpt><trkpt lat="44.81566841498079" lon="4.799009385581614"><ele>94.0</ele><time>2026-04-22T15:37:57Z</time></trkpt><trkpt lat="44.81557745441547" lon="4.799007314961183"><ele>94.0</ele><time>2026-04-22T15:38:00Z</time></trkpt><trkpt lat="44.81550708592362" lon="4.7989921525585615"><ele>94.0</ele><time>2026-04-22T15:38:02Z</time></trkpt><trkpt lat="44.815441408787834" lon="4.799000136502984"><ele>94.0</ele><time>2026-04-22T15:38:04Z</time></trkpt><trkpt lat="44.81537203448079" lon="4.799004026579647"><ele>94.0</ele><time>2026-04-22T15:38:06Z</time></trkpt><trkpt lat="44.815286978311974" lon="4.79900117294353"><ele>94.0</ele><time>2026-04-22T15:38:08Z</time></trkpt><trkpt lat="44.81520637495141" lon="4.798991440530564"><ele>94.0</ele><time>2026-04-22T15:38:10Z</time></trkpt><trkpt lat="44.815110032689624" lon="4.798973706971637"><ele>94.0</ele><time>2026-04-22T15:38:12Z</time></trkpt><trkpt lat="44.81502545042968" lon="4.798967084223924"><ele>94.0</ele><time>2026-04-22T15:38:14Z</time></trkpt><trkpt lat="44.814942372659026" lon="4.798953835927242"><ele>95.0</ele><time>2026-04-22T15:38:16Z</time></trkpt><trkpt lat="44.814839354969855" lon="4.798924111178918"><ele>96.0</ele><time>2026-04-22T15:38:18Z</time></trkpt><trkpt lat="44.81474061405586" lon="4.798898616117526"><ele>97.0</ele><time>2026-04-22T15:38:20Z</time></trkpt><trkpt lat="44.814654952843796" lon="4.798857947810264"><ele>98.0</ele><time>2026-04-22T15:38:22Z</time></trkpt><trkpt lat="44.814568066452736" lon="4.798832929386773"><ele>99.0</ele><time>2026-04-22T15:38:24Z</time></trkpt><trkpt lat="44.814482099344204" lon="4.7988096297959775"><ele>99.0</ele><time>2026-04-22T15:38:26Z</time></trkpt><trkpt lat="44.814403709155506" lon="4.798801583805308"><ele>99.0</ele><time>2026-04-22T15:38:28Z</time></trkpt><trkpt lat="44.81432644587065" lon="4.798789321137497"><ele>99.0</ele><time>2026-04-22T15:38:30Z</time></trkpt><trkpt lat="44.81423593239855" lon="4.798774035443054"><ele>99.0</ele><time>2026-04-22T15:38:32Z</time></trkpt><trkpt lat="44.81415286154513" lon="4.79873076000936"><ele>99.0</ele><time>2026-04-22T15:38:34Z</time></trkpt><trkpt lat="44.814066205394916" lon="4.798706052964562"><ele>99.0</ele><time>2026-04-22T15:38:36Z</time></trkpt><trkpt lat="44.81397559716311" lon="4.7986935261102195"><ele>98.6</ele><time>2026-04-22T15:38:38Z</time></trkpt><trkpt lat="44.81388581253134" lon="4.798664613534907"><ele>98.2</ele><time>2026-04-22T15:38:40Z</time></trkpt><trkpt lat="44.81378947575061" lon="4.798629477787085"><ele>97.8</ele><time>2026-04-22T15:38:42Z</time></trkpt><trkpt lat="44.81369388836143" lon="4.798586674878251"><ele>97.39999999999999</ele><time>2026-04-22T15:38:44Z</time></trkpt><trkpt lat="44.81359710036987" lon="4.798557446713835"><ele>97.0</ele><time>2026-04-22T15:38:46Z</time></trkpt><trkpt lat="44.81351508896737" lon="4.798528163331175"><ele>96.83333333333334</ele><time>2026-04-22T15:38:48Z</time></trkpt><trkpt lat="44.81345274542873" lon="4.798487549687888"><ele>96.66666666666667</ele><time>2026-04-22T15:38:50Z</time></trkpt><trkpt lat="44.81344939077152" lon="4.798377072549368"><ele>96.5</ele><time>2026-04-22T15:38:54Z</time></trkpt><trkpt lat="44.813495274164694" lon="4.7982791840806875"><ele>96.33333333333334</ele><time>2026-04-22T15:38:57Z</time></trkpt><trkpt lat="44.81353500011961" lon="4.798184739952923"><ele>96.16666666666667</ele><time>2026-04-22T15:39:00Z</time></trkpt><trkpt lat="44.81361400215883" lon="4.7981090187317745"><ele>96.0</ele><time>2026-04-22T15:39:04Z</time></trkpt><trkpt lat="44.81367580543615" lon="4.798086661224516"><ele>96.5</ele><time>2026-04-22T15:39:06Z</time></trkpt><trkpt lat="44.81374932305615" lon="4.798023918683712"><ele>97.0</ele><time>2026-04-22T15:39:09Z</time></trkpt><trkpt lat="44.81379904019224" lon="4.797925885141611"><ele>97.5</ele><time>2026-04-22T15:39:12Z</time></trkpt><trkpt lat="44.81382019080168" lon="4.797811385156619"><ele>98.0</ele><time>2026-04-22T15:39:15Z</time></trkpt><trkpt lat="44.81384243330115" lon="4.797712134571392"><ele>98.5</ele><time>2026-04-22T15:39:18Z</time></trkpt><trkpt lat="44.81386444044151" lon="4.797619051665965"><ele>99.0</ele><time>2026-04-22T15:39:21Z</time></trkpt><trkpt lat="44.813843194985786" lon="4.797524777161088"><ele>99.28571428571429</ele><time>2026-04-22T15:39:24Z</time></trkpt><trkpt lat="44.81379630003382" lon="4.797451259906739"><ele>99.57142857142857</ele><time>2026-04-22T15:39:27Z</time></trkpt><trkpt lat="44.813747153652194" lon="4.79738443123634"><ele>99.85714285714286</ele><time>2026-04-22T15:39:30Z</time></trkpt><trkpt lat="44.81368908491937" lon="4.797315434117599"><ele>100.14285714285714</ele><time>2026-04-22T15:39:33Z</time></trkpt><trkpt lat="44.813629922589875" lon="4.797244279192168"><ele>100.42857142857142</ele><time>2026-04-22T15:39:36Z</time></trkpt><trkpt lat="44.81357243559669" lon="4.79717340930953"><ele>100.71428571428571</ele><time>2026-04-22T15:39:39Z</time></trkpt><trkpt lat="44.81351547447931" lon="4.797110171295532"><ele>101.0</ele><time>2026-04-22T15:39:42Z</time></trkpt><trkpt lat="44.81345550422143" lon="4.7970470304257775"><ele>101.0</ele><time>2026-04-22T15:39:45Z</time></trkpt><trkpt lat="44.8133914242613" lon="4.797006135606075"><ele>101.0</ele><time>2026-04-22T15:39:48Z</time></trkpt><trkpt lat="44.813310164959134" lon="4.796945869266812"><ele>101.0</ele><time>2026-04-22T15:39:51Z</time></trkpt><trkpt lat="44.81325883967356" lon="4.796892078435805"><ele>101.0</ele><time>2026-04-22T15:39:53Z</time></trkpt><trkpt lat="44.813197275747385" lon="4.796840120539071"><ele>101.0</ele><time>2026-04-22T15:39:55Z</time></trkpt><trkpt lat="44.81313572928521" lon="4.796786357576429"><ele>101.0</ele><time>2026-04-22T15:39:57Z</time></trkpt><trkpt lat="44.81307461489836" lon="4.796719844154035"><ele>101.0</ele><time>2026-04-22T15:39:59Z</time></trkpt><trkpt lat="44.813012827367764" lon="4.796652537290359"><ele>100.99999999999999</ele><time>2026-04-22T15:40:01Z</time></trkpt><trkpt lat="44.81295226586157" lon="4.796579213867657"><ele>101.0</ele><time>2026-04-22T15:40:03Z</time></trkpt><trkpt lat="44.81288961101607" lon="4.796503635420195"><ele>101.0</ele><time>2026-04-22T15:40:05Z</time></trkpt><trkpt lat="44.81282757374632" lon="4.796423011889024"><ele>101.0</ele><time>2026-04-22T15:40:07Z</time></trkpt><trkpt lat="44.81276159450603" lon="4.796344582802754"><ele>100.99999999999999</ele><time>2026-04-22T15:40:09Z</time></trkpt><trkpt lat="44.81269149197177" lon="4.796248693586841"><ele>101.0</ele><time>2026-04-22T15:40:11Z</time></trkpt><trkpt lat="44.812612494003076" lon="4.796154030269361"><ele>101.0</ele><time>2026-04-22T15:40:13Z</time></trkpt><trkpt lat="44.81252456744683" lon="4.796059940056879"><ele>101.0</ele><time>2026-04-22T15:40:15Z</time></trkpt><trkpt lat="44.81243863578865" lon="4.795962404577309"><ele>101.0</ele><time>2026-04-22T15:40:17Z</time></trkpt><trkpt lat="44.81235087387964" lon="4.795870261584492"><ele>101.0</ele><time>2026-04-22T15:40:19Z</time></trkpt><trkpt lat="44.81232369738744" lon="4.795728563141239"><ele>101.0</ele><time>2026-04-22T15:40:21Z</time></trkpt><trkpt lat="44.8123631987343" lon="4.795594626123859"><ele>102.33333333333333</ele><time>2026-04-22T15:40:23Z</time></trkpt><trkpt lat="44.81240578283245" lon="4.795474843261613"><ele>103.66666666666666</ele><time>2026-04-22T15:40:25Z</time></trkpt><trkpt lat="44.812435497552116" lon="4.795356416044078"><ele>105.0</ele><time>2026-04-22T15:40:27Z</time></trkpt><trkpt lat="44.81247430000953" lon="4.79524761838041"><ele>106.33333333333334</ele><time>2026-04-22T15:40:29Z</time></trkpt><trkpt lat="44.81250778294739" lon="4.795148354828777"><ele>107.66666666666667</ele><time>2026-04-22T15:40:31Z</time></trkpt><trkpt lat="44.81253631022966" lon="4.795043038395129"><ele>109.0</ele><time>2026-04-22T15:40:33Z</time></trkpt><trkpt lat="44.81255634800356" lon="4.794948145441864"><ele>109.33333333333334</ele><time>2026-04-22T15:40:35Z</time></trkpt><trkpt lat="44.81257464669024" lon="4.794847680878661"><ele>109.66666666666667</ele><time>2026-04-22T15:40:37Z</time></trkpt><trkpt lat="44.81263082670655" lon="4.794735053605095"><ele>110.0</ele><time>2026-04-22T15:40:40Z</time></trkpt><trkpt lat="44.81269617914931" lon="4.79468585217773"><ele>110.33333333333334</ele><time>2026-04-22T15:40:42Z</time></trkpt><trkpt lat="44.81276565738053" lon="4.794645554619603"><ele>110.66666666666667</ele><time>2026-04-22T15:40:44Z</time></trkpt><trkpt lat="44.81283598414423" lon="4.794590056645255"><ele>111.0</ele><time>2026-04-22T15:40:46Z</time></trkpt><trkpt lat="44.81290436105294" lon="4.794556328801273"><ele>112.0</ele><time>2026-04-22T15:40:48Z</time></trkpt><trkpt lat="44.812975180441256" lon="4.794526848998697"><ele>113.0</ele><time>2026-04-22T15:40:50Z</time></trkpt><trkpt lat="44.813042432056235" lon="4.7944930958999725"><ele>114.0</ele><time>2026-04-22T15:40:52Z</time></trkpt><trkpt lat="44.813120898670704" lon="4.7944689498572295"><ele>115.0</ele><time>2026-04-22T15:40:54Z</time></trkpt><trkpt lat="44.813186657968366" lon="4.794433513508145"><ele>116.0</ele><time>2026-04-22T15:40:56Z</time></trkpt><trkpt lat="44.81324955597594" lon="4.794406470688631"><ele>117.0</ele><time>2026-04-22T15:40:58Z</time></trkpt><trkpt lat="44.81331929082191" lon="4.794397684229231"><ele>118.0</ele><time>2026-04-22T15:41:00Z</time></trkpt><trkpt lat="44.81340654485835" lon="4.794379238359455"><ele>118.0</ele><time>2026-04-22T15:41:03Z</time></trkpt><trkpt lat="44.81348114276102" lon="4.794385268719488"><ele>118.0</ele><time>2026-04-22T15:41:05Z</time></trkpt><trkpt lat="44.8135538200365" lon="4.794385178937828"><ele>118.0</ele><time>2026-04-22T15:41:08Z</time></trkpt><trkpt lat="44.81361845269536" lon="4.794391218854391"><ele>118.0</ele><time>2026-04-22T15:41:10Z</time></trkpt><trkpt lat="44.813704085942156" lon="4.794416592008302"><ele>118.0</ele><time>2026-04-22T15:41:12Z</time></trkpt><trkpt lat="44.81377378538605" lon="4.794426254736111"><ele>118.0</ele><time>2026-04-22T15:41:14Z</time></trkpt><trkpt lat="44.81385017427287" lon="4.794445240754027"><ele>118.0</ele><time>2026-04-22T15:41:16Z</time></trkpt><trkpt lat="44.81394668029483" lon="4.794425360324492"><ele>118.50000000000001</ele><time>2026-04-22T15:41:19Z</time></trkpt><trkpt lat="44.814021172268674" lon="4.794413926367233"><ele>119.0</ele><time>2026-04-22T15:41:21Z</time></trkpt><trkpt lat="44.81410736415398" lon="4.794379515752626"><ele>119.5</ele><time>2026-04-22T15:41:23Z</time></trkpt><trkpt lat="44.8141902003517" lon="4.794342507842334"><ele>120.0</ele><time>2026-04-22T15:41:25Z</time></trkpt><trkpt lat="44.81426675264885" lon="4.794295411963257"><ele>120.50000000000001</ele><time>2026-04-22T15:41:27Z</time></trkpt><trkpt lat="44.81434035631776" lon="4.79424142277479"><ele>121.0</ele><time>2026-04-22T15:41:29Z</time></trkpt><trkpt lat="44.8144123750962" lon="4.794185832278978"><ele>121.00000000000001</ele><time>2026-04-22T15:41:31Z</time></trkpt><trkpt lat="44.814485397577705" lon="4.794119050537935"><ele>121.0</ele><time>2026-04-22T15:41:33Z</time></trkpt><trkpt lat="44.81454682961769" lon="4.794042397811819"><ele>121.0</ele><time>2026-04-22T15:41:35Z</time></trkpt><trkpt lat="44.81459258659065" lon="4.793965379556389"><ele>121.0</ele><time>2026-04-22T15:41:37Z</time></trkpt><trkpt lat="44.81464443407839" lon="4.79387876367167"><ele>121.00000000000001</ele><time>2026-04-22T15:41:39Z</time></trkpt><trkpt lat="44.81469145700391" lon="4.793784073888362"><ele>121.0</ele><time>2026-04-22T15:41:41Z</time></trkpt><trkpt lat="44.814732979722635" lon="4.793682871417375"><ele>121.00000000000001</ele><time>2026-04-22T15:41:43Z</time></trkpt><trkpt lat="44.81476833210691" lon="4.793580517812241"><ele>121.0</ele><time>2026-04-22T15:41:45Z</time></trkpt><trkpt lat="44.81479939791875" lon="4.793480461560105"><ele>121.0</ele><time>2026-04-22T15:41:47Z</time></trkpt><trkpt lat="44.81481098690256" lon="4.793389653622908"><ele>121.0</ele><time>2026-04-22T15:41:49Z</time></trkpt><trkpt lat="44.81482048431812" lon="4.793282044862995"><ele>121.00000000000001</ele><time>2026-04-22T15:41:51Z</time></trkpt><trkpt lat="44.814830740565796" lon="4.793171421044666"><ele>121.0</ele><time>2026-04-22T15:41:53Z</time></trkpt><trkpt lat="44.81483357429178" lon="4.793045526876318"><ele>120.16666666666667</ele><time>2026-04-22T15:41:55Z</time></trkpt><trkpt lat="44.81483563072606" lon="4.7929270215759106"><ele>119.33333333333334</ele><time>2026-04-22T15:41:57Z</time></trkpt><trkpt lat="44.81483762342199" lon="4.792807677756273"><ele>118.5</ele><time>2026-04-22T15:41:59Z</time></trkpt><trkpt lat="44.814818184105484" lon="4.792697281561011"><ele>117.66666666666666</ele><time>2026-04-22T15:42:01Z</time></trkpt><trkpt lat="44.814803780312275" lon="4.792588147922366"><ele>116.83333333333333</ele><time>2026-04-22T15:42:03Z</time></trkpt><trkpt lat="44.81481462997009" lon="4.792491236284458"><ele>116.0</ele><time>2026-04-22T15:42:05Z</time></trkpt><trkpt lat="44.814808480309836" lon="4.792392340497088"><ele>115.66666666666666</ele><time>2026-04-22T15:42:07Z</time></trkpt><trkpt lat="44.81482133673511" lon="4.79228540400068"><ele>115.33333333333333</ele><time>2026-04-22T15:42:09Z</time></trkpt><trkpt lat="44.814818742858215" lon="4.792150286822179"><ele>115.0</ele><time>2026-04-22T15:42:12Z</time></trkpt><trkpt lat="44.81482190637888" lon="4.792050004787681"><ele>114.66666666666666</ele><time>2026-04-22T15:42:14Z</time></trkpt><trkpt lat="44.814830756343" lon="4.791930340903624"><ele>114.33333333333333</ele><time>2026-04-22T15:42:16Z</time></trkpt><trkpt lat="44.814853820005105" lon="4.7917912502224675"><ele>114.0</ele><time>2026-04-22T15:42:18Z</time></trkpt><trkpt lat="44.81488369823088" lon="4.79165456118623"><ele>114.0</ele><time>2026-04-22T15:42:20Z</time></trkpt><trkpt lat="44.8149280171449" lon="4.791516584147038"><ele>114.0</ele><time>2026-04-22T15:42:22Z</time></trkpt><trkpt lat="44.81498648251853" lon="4.791363824102589"><ele>114.0</ele><time>2026-04-22T15:42:24Z</time></trkpt><trkpt lat="44.81502608640008" lon="4.791286389683476"><ele>114.0</ele><time>2026-04-22T15:42:25Z</time></trkpt><trkpt lat="44.8150820353945" lon="4.791150001166431"><ele>114.0</ele><time>2026-04-22T15:42:27Z</time></trkpt><trkpt lat="44.81514246454618" lon="4.791038975171889"><ele>112.75</ele><time>2026-04-22T15:42:29Z</time></trkpt><trkpt lat="44.81521067535279" lon="4.79089995429776"><ele>111.5</ele><time>2026-04-22T15:42:31Z</time></trkpt><trkpt lat="44.81528233351837" lon="4.790777889010519"><ele>110.25</ele><time>2026-04-22T15:42:33Z</time></trkpt><trkpt lat="44.815360705370104" lon="4.790659741334209"><ele>109.0</ele><time>2026-04-22T15:42:35Z</time></trkpt><trkpt lat="44.815432808585456" lon="4.790529145541118"><ele>109.0</ele><time>2026-04-22T15:42:37Z</time></trkpt><trkpt lat="44.81550595163129" lon="4.790405471471087"><ele>109.0</ele><time>2026-04-22T15:42:39Z</time></trkpt><trkpt lat="44.8155701051462" lon="4.790272431754219"><ele>109.0</ele><time>2026-04-22T15:42:41Z</time></trkpt><trkpt lat="44.815625868110835" lon="4.790130391769325"><ele>109.0</ele><time>2026-04-22T15:42:43Z</time></trkpt><trkpt lat="44.8156797382369" lon="4.789989450242395"><ele>109.50000000000001</ele><time>2026-04-22T15:42:45Z</time></trkpt><trkpt lat="44.81573151537578" lon="4.78988506370494"><ele>110.0</ele><time>2026-04-22T15:42:47Z</time></trkpt><trkpt lat="44.81576512797431" lon="4.789791998073544"><ele>110.5</ele><time>2026-04-22T15:42:49Z</time></trkpt><trkpt lat="44.815824405151055" lon="4.789689068409243"><ele>111.0</ele><time>2026-04-22T15:42:51Z</time></trkpt><trkpt lat="44.81588696058122" lon="4.789570626476102"><ele>111.50000000000001</ele><time>2026-04-22T15:42:53Z</time></trkpt><trkpt lat="44.81591031337164" lon="4.789481083325901"><ele>112.0</ele><time>2026-04-22T15:42:54Z</time></trkpt><trkpt lat="44.81593836579355" lon="4.789394609195191"><ele>111.14285714285714</ele><time>2026-04-22T15:42:55Z</time></trkpt><trkpt lat="44.8159917343592" lon="4.7892492805603295"><ele>110.28571428571428</ele><time>2026-04-22T15:42:57Z</time></trkpt><trkpt lat="44.81602692912645" lon="4.78916521641164"><ele>109.42857142857143</ele><time>2026-04-22T15:42:58Z</time></trkpt><trkpt lat="44.81605421122068" lon="4.789074224441385"><ele>108.57142857142857</ele><time>2026-04-22T15:42:59Z</time></trkpt><trkpt lat="44.81608607123636" lon="4.788997272676548"><ele>107.71428571428571</ele><time>2026-04-22T15:43:00Z</time></trkpt><trkpt lat="44.816125078484696" lon="4.78892490172105"><ele>106.85714285714286</ele><time>2026-04-22T15:43:01Z</time></trkpt><trkpt lat="44.81616100145167" lon="4.788850859198241"><ele>106.0</ele><time>2026-04-22T15:43:02Z</time></trkpt><trkpt lat="44.816212415617294" lon="4.788688026752294"><ele>106.0</ele><time>2026-04-22T15:43:04Z</time></trkpt><trkpt lat="44.81627042332048" lon="4.788545146982395"><ele>106.0</ele><time>2026-04-22T15:43:06Z</time></trkpt><trkpt lat="44.81629741599475" lon="4.7884647127390005"><ele>106.0</ele><time>2026-04-22T15:43:07Z</time></trkpt><trkpt lat="44.816368785516524" lon="4.788323101506572"><ele>106.0</ele><time>2026-04-22T15:43:09Z</time></trkpt><trkpt lat="44.81642797580684" lon="4.788177791126943"><ele>106.0</ele><time>2026-04-22T15:43:11Z</time></trkpt><trkpt lat="44.81648380752547" lon="4.788049941953875"><ele>106.50000000000001</ele><time>2026-04-22T15:43:13Z</time></trkpt><trkpt lat="44.81652348964193" lon="4.787977941395524"><ele>107.0</ele><time>2026-04-22T15:43:15Z</time></trkpt><trkpt lat="44.81657409963014" lon="4.7879210518636235"><ele>107.5</ele><time>2026-04-22T15:44:23Z</time></trkpt><trkpt lat="44.81659863948924" lon="4.7878323637791596"><ele>108.0</ele><time>2026-04-22T15:44:26Z</time></trkpt><trkpt lat="44.81664441768499" lon="4.7877431557046295"><ele>108.50000000000001</ele><time>2026-04-22T15:44:28Z</time></trkpt><trkpt lat="44.8166991391082" lon="4.787635387603642"><ele>109.0</ele><time>2026-04-22T15:44:30Z</time></trkpt><trkpt lat="44.81674858248143" lon="4.787537788174707"><ele>109.0</ele><time>2026-04-22T15:44:32Z</time></trkpt><trkpt lat="44.81680182283079" lon="4.787433995853174"><ele>109.0</ele><time>2026-04-22T15:44:34Z</time></trkpt><trkpt lat="44.81686231266459" lon="4.787329298883487"><ele>109.0</ele><time>2026-04-22T15:44:36Z</time></trkpt><trkpt lat="44.81691245940104" lon="4.787228017174162"><ele>109.0</ele><time>2026-04-22T15:44:38Z</time></trkpt><trkpt lat="44.8169767057907" lon="4.787150582644343"><ele>109.0</ele><time>2026-04-22T15:44:40Z</time></trkpt><trkpt lat="44.81705150741307" lon="4.7870678308051104"><ele>109.00000000000001</ele><time>2026-04-22T15:44:42Z</time></trkpt><trkpt lat="44.81710369948369" lon="4.787001607651524"><ele>109.0</ele><time>2026-04-22T15:44:44Z</time></trkpt><trkpt lat="44.81718590222822" lon="4.78695848581937"><ele>109.0</ele><time>2026-04-22T15:44:48Z</time></trkpt><trkpt lat="44.81726606355199" lon="4.78690653062596"><ele>109.0</ele><time>2026-04-22T15:44:51Z</time></trkpt><trkpt lat="44.81735233360637" lon="4.7868405205233415"><ele>109.00000000000001</ele><time>2026-04-22T15:44:53Z</time></trkpt><trkpt lat="44.81743516156106" lon="4.786763471840706"><ele>109.0</ele><time>2026-04-22T15:44:55Z</time></trkpt><trkpt lat="44.81753098849892" lon="4.7867031472053565"><ele>108.6</ele><time>2026-04-22T15:44:57Z</time></trkpt><trkpt lat="44.81761497527702" lon="4.786636195995964"><ele>108.2</ele><time>2026-04-22T15:44:59Z</time></trkpt><trkpt lat="44.8177005127438" lon="4.786569479619531"><ele>107.79999999999998</ele><time>2026-04-22T15:45:01Z</time></trkpt><trkpt lat="44.81776952861673" lon="4.786480246786006"><ele>107.39999999999999</ele><time>2026-04-22T15:45:03Z</time></trkpt><trkpt lat="44.81784864812004" lon="4.786397169459539"><ele>107.0</ele><time>2026-04-22T15:45:05Z</time></trkpt><trkpt lat="44.817924474349425" lon="4.786299726833785"><ele>107.0</ele><time>2026-04-22T15:45:07Z</time></trkpt><trkpt lat="44.81800757677784" lon="4.786195714514096"><ele>106.99999999999999</ele><time>2026-04-22T15:45:09Z</time></trkpt><trkpt lat="44.81807614899659" lon="4.786103180650637"><ele>106.99999999999999</ele><time>2026-04-22T15:45:11Z</time></trkpt><trkpt lat="44.818163877662" lon="4.785999451279885"><ele>107.0</ele><time>2026-04-22T15:45:13Z</time></trkpt><trkpt lat="44.81824726621826" lon="4.78589495472134"><ele>107.0</ele><time>2026-04-22T15:45:15Z</time></trkpt><trkpt lat="44.81831947916176" lon="4.785801674592185"><ele>107.0</ele><time>2026-04-22T15:45:17Z</time></trkpt><trkpt lat="44.81840474948984" lon="4.785681629126213"><ele>106.99999999999999</ele><time>2026-04-22T15:45:19Z</time></trkpt><trkpt lat="44.81850204963133" lon="4.785573624675629"><ele>106.99999999999999</ele><time>2026-04-22T15:45:21Z</time></trkpt><trkpt lat="44.81855370640481" lon="4.78551970703929"><ele>107.0</ele><time>2026-04-22T15:45:22Z</time></trkpt><trkpt lat="44.81864814538889" lon="4.785414733153837"><ele>107.0</ele><time>2026-04-22T15:45:24Z</time></trkpt><trkpt lat="44.818733490463664" lon="4.785305649886305"><ele>107.0</ele><time>2026-04-22T15:45:26Z</time></trkpt><trkpt lat="44.818830146149324" lon="4.7852138289326"><ele>106.99999999999999</ele><time>2026-04-22T15:45:28Z</time></trkpt><trkpt lat="44.81891556522846" lon="4.7851211012156325"><ele>106.99999999999999</ele><time>2026-04-22T15:45:30Z</time></trkpt><trkpt lat="44.81899250586649" lon="4.7850417313539575"><ele>107.0</ele><time>2026-04-22T15:45:32Z</time></trkpt><trkpt lat="44.81906233739161" lon="4.784959018544707"><ele>107.0</ele><time>2026-04-22T15:45:34Z</time></trkpt><trkpt lat="44.81913357082524" lon="4.7848755148916515"><ele>107.0</ele><time>2026-04-22T15:45:36Z</time></trkpt><trkpt lat="44.81920499553547" lon="4.784766456162295"><ele>106.99999999999999</ele><time>2026-04-22T15:45:38Z</time></trkpt><trkpt lat="44.81927516519321" lon="4.784672173082457"><ele>106.99999999999999</ele><time>2026-04-22T15:45:40Z</time></trkpt><trkpt lat="44.81933851305547" lon="4.784579398232451"><ele>107.0</ele><time>2026-04-22T15:45:42.001Z</time></trkpt><trkpt lat="44.81942440428216" lon="4.784497328514243"><ele>107.0</ele><time>2026-04-22T15:45:44.001Z</time></trkpt><trkpt lat="44.81950194590776" lon="4.784400341277656"><ele>108.39999999999999</ele><time>2026-04-22T15:45:46.001Z</time></trkpt><trkpt lat="44.819587111037734" lon="4.784307056974575"><ele>109.79999999999998</ele><time>2026-04-22T15:45:48.001Z</time></trkpt><trkpt lat="44.81967053089711" lon="4.784221133919246"><ele>111.2</ele><time>2026-04-22T15:45:50.001Z</time></trkpt><trkpt lat="44.819752168895995" lon="4.784125973095557"><ele>112.6</ele><time>2026-04-22T15:45:52.001Z</time></trkpt><trkpt lat="44.81983175328044" lon="4.784030661417689"><ele>114.0</ele><time>2026-04-22T15:45:54.001Z</time></trkpt><trkpt lat="44.81990110024508" lon="4.7839390793365"><ele>114.0</ele><time>2026-04-22T15:45:56.001Z</time></trkpt><trkpt lat="44.819966330757914" lon="4.783853121847576"><ele>114.0</ele><time>2026-04-22T15:45:58.001Z</time></trkpt><trkpt lat="44.82005281298573" lon="4.783774824029331"><ele>114.0</ele><time>2026-04-22T15:46:00.001Z</time></trkpt><trkpt lat="44.82011544425356" lon="4.783673326954011"><ele>114.0</ele><time>2026-04-22T15:46:02.001Z</time></trkpt><trkpt lat="44.82019094763721" lon="4.7835908414580794"><ele>114.0</ele><time>2026-04-22T15:46:04.001Z</time></trkpt><trkpt lat="44.820266295876685" lon="4.783524410943374"><ele>114.2</ele><time>2026-04-22T15:46:06.001Z</time></trkpt><trkpt lat="44.820355290552584" lon="4.783453955402653"><ele>114.4</ele><time>2026-04-22T15:46:08.001Z</time></trkpt><trkpt lat="44.82042329990851" lon="4.783389476296508"><ele>114.6</ele><time>2026-04-22T15:46:10.001Z</time></trkpt><trkpt lat="44.8205075967424" lon="4.783330646035549"><ele>114.8</ele><time>2026-04-22T15:46:12.001Z</time></trkpt><trkpt lat="44.820573172037015" lon="4.78324733646128"><ele>115.0</ele><time>2026-04-22T15:46:14.001Z</time></trkpt><trkpt lat="44.820662029463044" lon="4.783170638722036"><ele>115.0</ele><time>2026-04-22T15:46:16.001Z</time></trkpt><trkpt lat="44.82076179594485" lon="4.783105678996271"><ele>115.0</ele><time>2026-04-22T15:46:18.001Z</time></trkpt><trkpt lat="44.82085473990054" lon="4.783042170482985"><ele>115.0</ele><time>2026-04-22T15:46:20.001Z</time></trkpt><trkpt lat="44.82094067598658" lon="4.782971340874115"><ele>115.0</ele><time>2026-04-22T15:46:22.001Z</time></trkpt><trkpt lat="44.821033558232536" lon="4.782921541039423"><ele>115.0</ele><time>2026-04-22T15:46:24.001Z</time></trkpt><trkpt lat="44.8210968038121" lon="4.782847841989771"><ele>114.8</ele><time>2026-04-22T15:46:26.001Z</time></trkpt><trkpt lat="44.82118592912635" lon="4.78275734638409"><ele>114.6</ele><time>2026-04-22T15:46:28.001Z</time></trkpt><trkpt lat="44.82126206283639" lon="4.7826674400797495"><ele>114.4</ele><time>2026-04-22T15:46:30.002Z</time></trkpt><trkpt lat="44.821340165745056" lon="4.782577080611866"><ele>114.2</ele><time>2026-04-22T15:46:32.002Z</time></trkpt><trkpt lat="44.821410583626786" lon="4.7824826786449695"><ele>114.0</ele><time>2026-04-22T15:46:34.001Z</time></trkpt><trkpt lat="44.82147344229694" lon="4.782375690778405"><ele>114.0</ele><time>2026-04-22T15:46:36.002Z</time></trkpt><trkpt lat="44.821539547663974" lon="4.782272084126333"><ele>114.0</ele><time>2026-04-22T15:46:38.001Z</time></trkpt><trkpt lat="44.821601233043495" lon="4.7821614616203005"><ele>114.0</ele><time>2026-04-22T15:46:40.001Z</time></trkpt><trkpt lat="44.82165347147526" lon="4.782040842920754"><ele>114.0</ele><time>2026-04-22T15:46:42.001Z</time></trkpt><trkpt lat="44.821706868291855" lon="4.781921279192548"><ele>114.0</ele><time>2026-04-22T15:46:44.001Z</time></trkpt><trkpt lat="44.82176264076331" lon="4.781800079211078"><ele>111.6</ele><time>2026-04-22T15:46:46.001Z</time></trkpt><trkpt lat="44.82180143176106" lon="4.7816715329332204"><ele>109.2</ele><time>2026-04-22T15:46:48.001Z</time></trkpt><trkpt lat="44.82184670154117" lon="4.78154859489529"><ele>106.8</ele><time>2026-04-22T15:46:50.001Z</time></trkpt><trkpt lat="44.82189266325264" lon="4.781420788794481"><ele>104.39999999999999</ele><time>2026-04-22T15:46:52.001Z</time></trkpt><trkpt lat="44.821914862083474" lon="4.781296572342729"><ele>102.0</ele><time>2026-04-22T15:46:54.001Z</time></trkpt><trkpt lat="44.82194186679841" lon="4.781165467941625"><ele>102.0</ele><time>2026-04-22T15:46:56.001Z</time></trkpt><trkpt lat="44.82198288592353" lon="4.781039687669181"><ele>102.0</ele><time>2026-04-22T15:46:58.001Z</time></trkpt><trkpt lat="44.82200137982259" lon="4.780905846940483"><ele>102.0</ele><time>2026-04-22T15:47:00.001Z</time></trkpt><trkpt lat="44.82202891274856" lon="4.7807761470508545"><ele>102.0</ele><time>2026-04-22T15:47:02.001Z</time></trkpt><trkpt lat="44.82205718781348" lon="4.780642960861781"><ele>102.0</ele><time>2026-04-22T15:47:04.001Z</time></trkpt><trkpt lat="44.82209563702717" lon="4.780512817061435"><ele>103.0</ele><time>2026-04-22T15:47:06.001Z</time></trkpt><trkpt lat="44.82210469223244" lon="4.780387471078481"><ele>104.0</ele><time>2026-04-22T15:47:08.001Z</time></trkpt><trkpt lat="44.8221253771015" lon="4.78026450194178"><ele>104.99999999999999</ele><time>2026-04-22T15:47:10.001Z</time></trkpt><trkpt lat="44.82214216163024" lon="4.780133685224106"><ele>106.0</ele><time>2026-04-22T15:47:12.001Z</time></trkpt><trkpt lat="44.82214671529794" lon="4.779998555065074"><ele>107.0</ele><time>2026-04-22T15:47:14.001Z</time></trkpt><trkpt lat="44.822154564220135" lon="4.779870472241891"><ele>107.6</ele><time>2026-04-22T15:47:16.001Z</time></trkpt><trkpt lat="44.82214797236512" lon="4.779748121199863"><ele>108.19999999999999</ele><time>2026-04-22T15:47:18.001Z</time></trkpt><trkpt lat="44.822152424926955" lon="4.77962201494688"><ele>108.8</ele><time>2026-04-22T15:47:20.001Z</time></trkpt><trkpt lat="44.82213879068237" lon="4.779475685730651"><ele>109.4</ele><time>2026-04-22T15:47:22.001Z</time></trkpt><trkpt lat="44.82213785512465" lon="4.779339221995942"><ele>110.0</ele><time>2026-04-22T15:47:24.001Z</time></trkpt><trkpt lat="44.82212920758497" lon="4.779195519838048"><ele>110.0</ele><time>2026-04-22T15:47:26.001Z</time></trkpt><trkpt lat="44.82211836706481" lon="4.779051782629204"><ele>110.0</ele><time>2026-04-22T15:47:28.001Z</time></trkpt><trkpt lat="44.82211094422574" lon="4.778919278085395"><ele>110.0</ele><time>2026-04-22T15:47:30.001Z</time></trkpt><trkpt lat="44.82209487466224" lon="4.778776287907667"><ele>110.0</ele><time>2026-04-22T15:47:32.001Z</time></trkpt><trkpt lat="44.82208853066697" lon="4.7786510967145555"><ele>110.0</ele><time>2026-04-22T15:47:34.001Z</time></trkpt><trkpt lat="44.822091370904914" lon="4.778517982958361"><ele>110.0</ele><time>2026-04-22T15:47:36.001Z</time></trkpt><trkpt lat="44.8221000828443" lon="4.778376014775067"><ele>110.0</ele><time>2026-04-22T15:47:38.001Z</time></trkpt><trkpt lat="44.8220851960475" lon="4.778246594691685"><ele>110.0</ele><time>2026-04-22T15:47:40.001Z</time></trkpt><trkpt lat="44.822084151620125" lon="4.778115243137531"><ele>110.0</ele><time>2026-04-22T15:47:42.001Z</time></trkpt><trkpt lat="44.82207934475816" lon="4.77796758738707"><ele>110.0</ele><time>2026-04-22T15:47:44.001Z</time></trkpt><trkpt lat="44.822060386071726" lon="4.777857221738481"><ele>110.0</ele><time>2026-04-22T15:47:46.001Z</time></trkpt><trkpt lat="44.822038512689794" lon="4.777713918707879"><ele>110.0</ele><time>2026-04-22T15:47:48.001Z</time></trkpt><trkpt lat="44.82203446466449" lon="4.777576479986049"><ele>110.0</ele><time>2026-04-22T15:47:50.001Z</time></trkpt><trkpt lat="44.82200772697927" lon="4.777443638762144"><ele>110.0</ele><time>2026-04-22T15:47:52.001Z</time></trkpt><trkpt lat="44.821978331529095" lon="4.7773171845912845"><ele>110.0</ele><time>2026-04-22T15:47:54.001Z</time></trkpt><trkpt lat="44.82195557646843" lon="4.777163838755561"><ele>109.8</ele><time>2026-04-22T15:47:56.001Z</time></trkpt><trkpt lat="44.821915307819594" lon="4.777064344210078"><ele>109.6</ele><time>2026-04-22T15:47:58.001Z</time></trkpt><trkpt lat="44.821895288908166" lon="4.776935735831284"><ele>109.4</ele><time>2026-04-22T15:48:00.001Z</time></trkpt><trkpt lat="44.82188625459247" lon="4.776807067335276"><ele>109.2</ele><time>2026-04-22T15:48:02.001Z</time></trkpt><trkpt lat="44.82186622158613" lon="4.776656077243355"><ele>109.0</ele><time>2026-04-22T15:48:04.001Z</time></trkpt><trkpt lat="44.82184697415301" lon="4.7765103976415695"><ele>108.6</ele><time>2026-04-22T15:48:06.001Z</time></trkpt><trkpt lat="44.821828504672276" lon="4.776425303343984"><ele>108.2</ele><time>2026-04-22T15:48:07.001Z</time></trkpt><trkpt lat="44.82180862399007" lon="4.776282728075755"><ele>107.79999999999998</ele><time>2026-04-22T15:48:09.001Z</time></trkpt><trkpt lat="44.8217956118194" lon="4.776128481583279"><ele>107.39999999999999</ele><time>2026-04-22T15:48:11.001Z</time></trkpt><trkpt lat="44.82179041419254" lon="4.77598873991559"><ele>107.0</ele><time>2026-04-22T15:48:13.001Z</time></trkpt><trkpt lat="44.821762331054565" lon="4.775854676318769"><ele>111.39999999999999</ele><time>2026-04-22T15:48:15.001Z</time></trkpt><trkpt lat="44.8217495299014" lon="4.775712130034346"><ele>115.79999999999998</ele><time>2026-04-22T15:48:17.001Z</time></trkpt><trkpt lat="44.8217398696327" lon="4.7755664398684505"><ele>120.2</ele><time>2026-04-22T15:48:19.001Z</time></trkpt><trkpt lat="44.82172479507171" lon="4.775432996919965"><ele>124.6</ele><time>2026-04-22T15:48:21.001Z</time></trkpt><trkpt lat="44.82171289916205" lon="4.775305396878077"><ele>129.0</ele><time>2026-04-22T15:48:23.001Z</time></trkpt><trkpt lat="44.82168922185579" lon="4.775177486610754"><ele>129.0</ele><time>2026-04-22T15:48:25.001Z</time></trkpt><trkpt lat="44.821676473579394" lon="4.775057878827908"><ele>129.0</ele><time>2026-04-22T15:48:27.001Z</time></trkpt><trkpt lat="44.82165929418459" lon="4.774891910602758"><ele>129.0</ele><time>2026-04-22T15:48:29.001Z</time></trkpt><trkpt lat="44.8216405152095" lon="4.774736635595128"><ele>129.0</ele><time>2026-04-22T15:48:31.001Z</time></trkpt><trkpt lat="44.82162047830136" lon="4.774592122687985"><ele>129.0</ele><time>2026-04-22T15:48:33.002Z</time></trkpt><trkpt lat="44.82161176212126" lon="4.774441280326265"><ele>128.2</ele><time>2026-04-22T15:48:35.001Z</time></trkpt><trkpt lat="44.82159417032614" lon="4.7743000931675015"><ele>127.4</ele><time>2026-04-22T15:48:37.001Z</time></trkpt><trkpt lat="44.821585393333244" lon="4.774141858006494"><ele>126.6</ele><time>2026-04-22T15:48:39.002Z</time></trkpt><trkpt lat="44.821587550862084" lon="4.773997552984345"><ele>125.8</ele><time>2026-04-22T15:48:41.001Z</time></trkpt><trkpt lat="44.82158573586273" lon="4.773836545942435"><ele>125.0</ele><time>2026-04-22T15:48:43.002Z</time></trkpt><trkpt lat="44.82157310117385" lon="4.773700132515993"><ele>125.0</ele><time>2026-04-22T15:48:45.002Z</time></trkpt><trkpt lat="44.8215714269642" lon="4.773542395953649"><ele>125.0</ele><time>2026-04-22T15:48:47.001Z</time></trkpt><trkpt lat="44.82157190606206" lon="4.773391147276444"><ele>125.0</ele><time>2026-04-22T15:48:49.001Z</time></trkpt><trkpt lat="44.82157820892712" lon="4.7732469819530445"><ele>125.0</ele><time>2026-04-22T15:48:51.001Z</time></trkpt><trkpt lat="44.82156992323106" lon="4.773099319672976"><ele>125.0</ele><time>2026-04-22T15:48:53.001Z</time></trkpt><trkpt lat="44.8215564357352" lon="4.772947834860536"><ele>125.0</ele><time>2026-04-22T15:48:55.001Z</time></trkpt><trkpt lat="44.821567915901454" lon="4.772814834988419"><ele>125.0</ele><time>2026-04-22T15:48:57.001Z</time></trkpt><trkpt lat="44.82155848917004" lon="4.772667771895786"><ele>125.0</ele><time>2026-04-22T15:48:59.001Z</time></trkpt><trkpt lat="44.821536043910065" lon="4.77252609514899"><ele>125.0</ele><time>2026-04-22T15:49:01.001Z</time></trkpt><trkpt lat="44.821517463567375" lon="4.772400852901673"><ele>125.0</ele><time>2026-04-22T15:49:03.001Z</time></trkpt><trkpt lat="44.82151798776101" lon="4.7722552575609045"><ele>124.6</ele><time>2026-04-22T15:49:05.001Z</time></trkpt><trkpt lat="44.82151144000787" lon="4.772114608574325"><ele>124.2</ele><time>2026-04-22T15:49:07.001Z</time></trkpt><trkpt lat="44.821501649673024" lon="4.771971024210556"><ele>123.80000000000001</ele><time>2026-04-22T15:49:09.001Z</time></trkpt><trkpt lat="44.8214713459834" lon="4.771822422698237"><ele>123.4</ele><time>2026-04-22T15:49:11.001Z</time></trkpt><trkpt lat="44.821449390806805" lon="4.771694115806636"><ele>123.0</ele><time>2026-04-22T15:49:13.001Z</time></trkpt><trkpt lat="44.821425690605686" lon="4.771558796756521"><ele>122.0</ele><time>2026-04-22T15:49:15.001Z</time></trkpt><trkpt lat="44.82140381759251" lon="4.771420314144605"><ele>121.00000000000001</ele><time>2026-04-22T15:49:17.001Z</time></trkpt><trkpt lat="44.821375466581436" lon="4.771291189211341"><ele>120.00000000000001</ele><time>2026-04-22T15:49:19.001Z</time></trkpt><trkpt lat="44.821334090491284" lon="4.771161633156132"><ele>119.0</ele><time>2026-04-22T15:49:21.001Z</time></trkpt><trkpt lat="44.821324130625705" lon="4.7710380468397044"><ele>118.0</ele><time>2026-04-22T15:49:23.001Z</time></trkpt><trkpt lat="44.82129927236049" lon="4.770894396889376"><ele>117.0</ele><time>2026-04-22T15:49:25.001Z</time></trkpt><trkpt lat="44.82125906737678" lon="4.770786787656604"><ele>116.00000000000001</ele><time>2026-04-22T15:49:27.001Z</time></trkpt><trkpt lat="44.8212366280093" lon="4.770647412012477"><ele>115.00000000000001</ele><time>2026-04-22T15:49:29.001Z</time></trkpt><trkpt lat="44.82120949287639" lon="4.770515958121464"><ele>114.0</ele><time>2026-04-22T15:49:31.001Z</time></trkpt><trkpt lat="44.82117469451144" lon="4.770401393640027"><ele>113.0</ele><time>2026-04-22T15:49:33.001Z</time></trkpt><trkpt lat="44.82113303914254" lon="4.770286821972267"><ele>111.66666666666666</ele><time>2026-04-22T15:49:35.001Z</time></trkpt><trkpt lat="44.82111780299915" lon="4.770139101522313"><ele>110.33333333333333</ele><time>2026-04-22T15:49:37.001Z</time></trkpt><trkpt lat="44.82109749485331" lon="4.770030345549593"><ele>109.0</ele><time>2026-04-22T15:49:39.001Z</time></trkpt><trkpt lat="44.8210708063833" lon="4.769919794095717"><ele>107.66666666666666</ele><time>2026-04-22T15:49:41.001Z</time></trkpt><trkpt lat="44.82104262179086" lon="4.769801803940428"><ele>106.33333333333333</ele><time>2026-04-22T15:49:43.001Z</time></trkpt><trkpt lat="44.821021412874316" lon="4.769708357657938"><ele>105.0</ele><time>2026-04-22T15:49:45.001Z</time></trkpt><trkpt lat="44.820999339548635" lon="4.769611765447165"><ele>105.0</ele><time>2026-04-22T15:49:47.001Z</time></trkpt><trkpt lat="44.820988554471214" lon="4.7695105343551685"><ele>105.0</ele><time>2026-04-22T15:49:49.001Z</time></trkpt><trkpt lat="44.820962557719405" lon="4.769406042189692"><ele>105.0</ele><time>2026-04-22T15:49:51.001Z</time></trkpt><trkpt lat="44.82092654454506" lon="4.769304329174214"><ele>105.0</ele><time>2026-04-22T15:49:53.001Z</time></trkpt><trkpt lat="44.820888624193564" lon="4.769191480147795"><ele>105.0</ele><time>2026-04-22T15:49:55.001Z</time></trkpt><trkpt lat="44.82085848200069" lon="4.76905572272331"><ele>105.0</ele><time>2026-04-22T15:49:57.001Z</time></trkpt><trkpt lat="44.82083281707777" lon="4.7689428441588335"><ele>108.4</ele><time>2026-04-22T15:49:59.001Z</time></trkpt><trkpt lat="44.82078782284419" lon="4.768829704748191"><ele>111.8</ele><time>2026-04-22T15:50:01.001Z</time></trkpt><trkpt lat="44.82074021429918" lon="4.768710975228071"><ele>115.19999999999999</ele><time>2026-04-22T15:50:03.001Z</time></trkpt><trkpt lat="44.82071133794043" lon="4.768583390065896"><ele>118.6</ele><time>2026-04-22T15:50:05.001Z</time></trkpt><trkpt lat="44.820681920131875" lon="4.768465423447084"><ele>122.0</ele><time>2026-04-22T15:50:07.001Z</time></trkpt><trkpt lat="44.82069087681357" lon="4.768349607244802"><ele>122.0</ele><time>2026-04-22T15:50:09.001Z</time></trkpt><trkpt lat="44.82067623903808" lon="4.768236182237162"><ele>121.99999999999999</ele><time>2026-04-22T15:50:11.001Z</time></trkpt><trkpt lat="44.820670823332335" lon="4.768093899710044"><ele>121.99999999999999</ele><time>2026-04-22T15:50:13.001Z</time></trkpt><trkpt lat="44.820662948177734" lon="4.767963917998219"><ele>122.0</ele><time>2026-04-22T15:50:15.001Z</time></trkpt><trkpt lat="44.82065179287718" lon="4.7678232738850115"><ele>122.0</ele><time>2026-04-22T15:50:17.001Z</time></trkpt><trkpt lat="44.8206325559658" lon="4.767677779165953"><ele>120.8</ele><time>2026-04-22T15:50:19.001Z</time></trkpt><trkpt lat="44.820637472559625" lon="4.767558324835448"><ele>119.6</ele><time>2026-04-22T15:50:21.001Z</time></trkpt><trkpt lat="44.82060727758757" lon="4.767426613908154"><ele>118.39999999999999</ele><time>2026-04-22T15:50:23.001Z</time></trkpt><trkpt lat="44.820591354946316" lon="4.767291167382943"><ele>117.19999999999999</ele><time>2026-04-22T15:50:25.001Z</time></trkpt><trkpt lat="44.82057474999297" lon="4.767172941922582"><ele>116.0</ele><time>2026-04-22T15:50:27.001Z</time></trkpt><trkpt lat="44.8205484744694" lon="4.767052810948935"><ele>115.99999999999999</ele><time>2026-04-22T15:50:29.001Z</time></trkpt><trkpt lat="44.82050304166535" lon="4.766942912883092"><ele>116.0</ele><time>2026-04-22T15:50:31.001Z</time></trkpt><trkpt lat="44.820488666271594" lon="4.7668532572934055"><ele>116.0</ele><time>2026-04-22T15:50:34.001Z</time></trkpt><trkpt lat="44.820426006778355" lon="4.766737912676615"><ele>116.0</ele><time>2026-04-22T15:51:54.001Z</time></trkpt><trkpt lat="44.82038260199204" lon="4.766627739314536"><ele>115.99999999999999</ele><time>2026-04-22T15:52:24.001Z</time></trkpt><trkpt lat="44.82036712120435" lon="4.76653768284536"><ele>116.0</ele><time>2026-04-22T15:52:26.001Z</time></trkpt><trkpt lat="44.82034296068947" lon="4.76645036600794"><ele>115.0</ele><time>2026-04-22T15:52:28.001Z</time></trkpt><trkpt lat="44.820301154307565" lon="4.76631780518058"><ele>114.0</ele><time>2026-04-22T15:52:30.001Z</time></trkpt><trkpt lat="44.820282202692184" lon="4.766195219645588"><ele>113.0</ele><time>2026-04-22T15:52:32.001Z</time></trkpt><trkpt lat="44.820260559227584" lon="4.76608229495405"><ele>112.0</ele><time>2026-04-22T15:52:34.001Z</time></trkpt><trkpt lat="44.82023412176422" lon="4.765953183421387"><ele>111.0</ele><time>2026-04-22T15:52:36.001Z</time></trkpt><trkpt lat="44.82021866607686" lon="4.765816135311483"><ele>110.0</ele><time>2026-04-22T15:52:38.001Z</time></trkpt><trkpt lat="44.820196400956405" lon="4.765670691667155"><ele>109.0</ele><time>2026-04-22T15:52:40.001Z</time></trkpt><trkpt lat="44.82017882876297" lon="4.765532534494409"><ele>108.0</ele><time>2026-04-22T15:52:42.001Z</time></trkpt><trkpt lat="44.82016813861897" lon="4.765396604846103"><ele>107.0</ele><time>2026-04-22T15:52:44.001Z</time></trkpt><trkpt lat="44.82015189771791" lon="4.765259027948856"><ele>106.0</ele><time>2026-04-22T15:52:46.002Z</time></trkpt><trkpt lat="44.82014369740028" lon="4.765114439124894"><ele>112.0</ele><time>2026-04-22T15:52:48.003Z</time></trkpt><trkpt lat="44.820133854745286" lon="4.764981244798474"><ele>118.0</ele><time>2026-04-22T15:52:50.002Z</time></trkpt><trkpt lat="44.82013162393945" lon="4.7648177009066295"><ele>124.0</ele><time>2026-04-22T15:52:52.002Z</time></trkpt><trkpt lat="44.82013568348119" lon="4.764667351937136"><ele>130.0</ele><time>2026-04-22T15:52:54.002Z</time></trkpt><trkpt lat="44.82013355024853" lon="4.764515545451408"><ele>136.0</ele><time>2026-04-22T15:52:56.003Z</time></trkpt><trkpt lat="44.820127776820854" lon="4.764359555232276"><ele>136.0</ele><time>2026-04-22T15:52:58.002Z</time></trkpt><trkpt lat="44.820133899674744" lon="4.764204210487067"><ele>136.0</ele><time>2026-04-22T15:53:00.002Z</time></trkpt><trkpt lat="44.82013208816124" lon="4.7640530378533"><ele>136.0</ele><time>2026-04-22T15:53:02.002Z</time></trkpt><trkpt lat="44.820118321072826" lon="4.7639126692104945"><ele>136.0</ele><time>2026-04-22T15:53:04.002Z</time></trkpt><trkpt lat="44.820108948715735" lon="4.763750135238665"><ele>136.0</ele><time>2026-04-22T15:53:06.002Z</time></trkpt><trkpt lat="44.820092534602345" lon="4.7635967637655074"><ele>135.0</ele><time>2026-04-22T15:53:08.002Z</time></trkpt><trkpt lat="44.82007416785104" lon="4.763436734586303"><ele>134.0</ele><time>2026-04-22T15:53:10.002Z</time></trkpt><trkpt lat="44.820059227498405" lon="4.763275137011403"><ele>133.0</ele><time>2026-04-22T15:53:12.002Z</time></trkpt><trkpt lat="44.82003156395064" lon="4.763138157057687"><ele>132.0</ele><time>2026-04-22T15:53:14.002Z</time></trkpt><trkpt lat="44.81999712941773" lon="4.76298625254623"><ele>131.0</ele><time>2026-04-22T15:53:16.002Z</time></trkpt><trkpt lat="44.81998278840867" lon="4.762846872122305"><ele>131.0</ele><time>2026-04-22T15:53:18.002Z</time></trkpt><trkpt lat="44.819961027401426" lon="4.762723865703896"><ele>131.0</ele><time>2026-04-22T15:53:20.002Z</time></trkpt><trkpt lat="44.819920233834885" lon="4.762591335088743"><ele>131.0</ele><time>2026-04-22T15:53:22.002Z</time></trkpt><trkpt lat="44.81988497160568" lon="4.7624543565265105"><ele>131.0</ele><time>2026-04-22T15:53:24.002Z</time></trkpt><trkpt lat="44.819854864775856" lon="4.7623190578589085"><ele>131.0</ele><time>2026-04-22T15:53:26.002Z</time></trkpt><trkpt lat="44.819818198953676" lon="4.762167379956218"><ele>129.6</ele><time>2026-04-22T15:53:28.002Z</time></trkpt><trkpt lat="44.819783324348315" lon="4.762015422439876"><ele>128.2</ele><time>2026-04-22T15:53:30.002Z</time></trkpt><trkpt lat="44.81975119637745" lon="4.761864045617932"><ele>126.80000000000001</ele><time>2026-04-22T15:53:32.002Z</time></trkpt><trkpt lat="44.819728110284295" lon="4.761722755471222"><ele>125.4</ele><time>2026-04-22T15:53:34.002Z</time></trkpt><trkpt lat="44.81969860342902" lon="4.7615855515386984"><ele>124.0</ele><time>2026-04-22T15:53:36.002Z</time></trkpt><trkpt lat="44.81966771452558" lon="4.76147235520425"><ele>122.66666666666667</ele><time>2026-04-22T15:53:38.002Z</time></trkpt><trkpt lat="44.81965663568165" lon="4.761351850645604"><ele>121.33333333333334</ele><time>2026-04-22T15:53:40.002Z</time></trkpt><trkpt lat="44.81963452362223" lon="4.761234029646818"><ele>120.0</ele><time>2026-04-22T15:53:42.002Z</time></trkpt><trkpt lat="44.81963511330615" lon="4.761125546767301"><ele>118.66666666666666</ele><time>2026-04-22T15:53:44.002Z</time></trkpt><trkpt lat="44.8196266078004" lon="4.761004169696645"><ele>117.33333333333333</ele><time>2026-04-22T15:53:47.002Z</time></trkpt><trkpt lat="44.81957255896074" lon="4.760955603889642"><ele>116.0</ele><time>2026-04-22T15:53:51.002Z</time></trkpt><trkpt lat="44.81961858234171" lon="4.76104528553646"><ele>115.99999999999999</ele><time>2026-04-22T15:53:54.002Z</time></trkpt><trkpt lat="44.81962592012516" lon="4.76116359078328"><ele>116.0</ele><time>2026-04-22T15:53:56.002Z</time></trkpt><trkpt lat="44.819625603019716" lon="4.761278407976339"><ele>116.0</ele><time>2026-04-22T15:53:58.002Z</time></trkpt><trkpt lat="44.819649411023306" lon="4.7613919501624045"><ele>116.0</ele><time>2026-04-22T15:54:00.002Z</time></trkpt><trkpt lat="44.819679516448154" lon="4.761507721058223"><ele>115.99999999999999</ele><time>2026-04-22T15:54:02.002Z</time></trkpt><trkpt lat="44.819709003438255" lon="4.761629007722059"><ele>116.0</ele><time>2026-04-22T15:54:04.002Z</time></trkpt><trkpt lat="44.81972616827028" lon="4.761757125885399"><ele>117.6</ele><time>2026-04-22T15:54:06.002Z</time></trkpt><trkpt lat="44.81975586682114" lon="4.761897549904996"><ele>119.19999999999999</ele><time>2026-04-22T15:54:08.002Z</time></trkpt><trkpt lat="44.81978527566695" lon="4.762029461145057"><ele>120.80000000000001</ele><time>2026-04-22T15:54:10.002Z</time></trkpt><trkpt lat="44.81981036202971" lon="4.762162544947444"><ele>122.4</ele><time>2026-04-22T15:54:12.002Z</time></trkpt><trkpt lat="44.8198347767771" lon="4.762298710973652"><ele>124.0</ele><time>2026-04-22T15:54:14.002Z</time></trkpt><trkpt lat="44.81987491816547" lon="4.762450034614669"><ele>124.0</ele><time>2026-04-22T15:54:16.002Z</time></trkpt><trkpt lat="44.81990907718036" lon="4.76258931949353"><ele>124.0</ele><time>2026-04-22T15:54:18.002Z</time></trkpt><trkpt lat="44.8199453161765" lon="4.762739844685639"><ele>124.0</ele><time>2026-04-22T15:54:20.002Z</time></trkpt><trkpt lat="44.81996944992471" lon="4.76288457375892"><ele>124.0</ele><time>2026-04-22T15:54:22.002Z</time></trkpt><trkpt lat="44.820002916604864" lon="4.763044055754476"><ele>124.0</ele><time>2026-04-22T15:54:24.002Z</time></trkpt><trkpt lat="44.82003222282135" lon="4.7632031285099945"><ele>125.4</ele><time>2026-04-22T15:54:26.002Z</time></trkpt><trkpt lat="44.82006000441317" lon="4.763352168479384"><ele>126.80000000000001</ele><time>2026-04-22T15:54:28.002Z</time></trkpt><trkpt lat="44.820080985783626" lon="4.76350500568745"><ele>128.2</ele><time>2026-04-22T15:54:30.002Z</time></trkpt><trkpt lat="44.820102647837174" lon="4.763661883629963"><ele>129.6</ele><time>2026-04-22T15:54:32.002Z</time></trkpt><trkpt lat="44.82011650889293" lon="4.763823052170059"><ele>131.0</ele><time>2026-04-22T15:54:34.002Z</time></trkpt><trkpt lat="44.82011633263569" lon="4.7639758611598815"><ele>132.0</ele><time>2026-04-22T15:54:36.002Z</time></trkpt><trkpt lat="44.82011184677043" lon="4.76413181439338"><ele>133.0</ele><time>2026-04-22T15:54:38.002Z</time></trkpt><trkpt lat="44.82011181264771" lon="4.764287994317141"><ele>134.0</ele><time>2026-04-22T15:54:40.002Z</time></trkpt><trkpt lat="44.82010688921106" lon="4.76444481632452"><ele>135.0</ele><time>2026-04-22T15:54:42.002Z</time></trkpt><trkpt lat="44.8201047777106" lon="4.764594076409559"><ele>136.0</ele><time>2026-04-22T15:54:44.002Z</time></trkpt><trkpt lat="44.82010591407057" lon="4.764752473954294"><ele>136.0</ele><time>2026-04-22T15:54:46.002Z</time></trkpt><trkpt lat="44.820111098415595" lon="4.764902138184588"><ele>136.0</ele><time>2026-04-22T15:54:48.002Z</time></trkpt><trkpt lat="44.820118754425685" lon="4.765058618261632"><ele>136.0</ele><time>2026-04-22T15:54:50.002Z</time></trkpt><trkpt lat="44.82013291157953" lon="4.7652206273782465"><ele>136.0</ele><time>2026-04-22T15:54:52.002Z</time></trkpt><trkpt lat="44.82014207429614" lon="4.765364267914731"><ele>136.0</ele><time>2026-04-22T15:54:54.002Z</time></trkpt><trkpt lat="44.82017852642294" lon="4.76553119232741"><ele>131.0</ele><time>2026-04-22T15:54:56.003Z</time></trkpt><trkpt lat="44.82020706930686" lon="4.765668645566966"><ele>126.0</ele><time>2026-04-22T15:54:58.002Z</time></trkpt><trkpt lat="44.8202302621794" lon="4.765826092782439"><ele>121.0</ele><time>2026-04-22T15:55:00.003Z</time></trkpt><trkpt lat="44.820252767453056" lon="4.765977463324064"><ele>116.0</ele><time>2026-04-22T15:55:02.003Z</time></trkpt><trkpt lat="44.820272947419504" lon="4.766126791259063"><ele>111.0</ele><time>2026-04-22T15:55:04.003Z</time></trkpt><trkpt lat="44.820302091396975" lon="4.766277290063619"><ele>111.0</ele><time>2026-04-22T15:55:06.003Z</time></trkpt><trkpt lat="44.82034662100562" lon="4.7664232597782545"><ele>111.0</ele><time>2026-04-22T15:55:08.003Z</time></trkpt><trkpt lat="44.82039862925136" lon="4.766561686431304"><ele>111.0</ele><time>2026-04-22T15:55:10.003Z</time></trkpt><trkpt lat="44.82044642067954" lon="4.766697600475958"><ele>111.0</ele><time>2026-04-22T15:55:12.003Z</time></trkpt><trkpt lat="44.82049570705935" lon="4.766836554592444"><ele>111.0</ele><time>2026-04-22T15:55:14.003Z</time></trkpt><trkpt lat="44.82051620136886" lon="4.766977493373042"><ele>112.0</ele><time>2026-04-22T15:55:16.003Z</time></trkpt><trkpt lat="44.82054869132986" lon="4.767132205810418"><ele>113.0</ele><time>2026-04-22T15:55:18.003Z</time></trkpt><trkpt lat="44.82057219733161" lon="4.767283081328037"><ele>114.0</ele><time>2026-04-22T15:55:20.003Z</time></trkpt><trkpt lat="44.82058318785512" lon="4.767455039921083"><ele>115.0</ele><time>2026-04-22T15:55:22.003Z</time></trkpt><trkpt lat="44.82058466582712" lon="4.7675441479622"><ele>116.0</ele><time>2026-04-22T15:55:23.003Z</time></trkpt><trkpt lat="44.82059909960748" lon="4.767694639275088"><ele>116.99999999999999</ele><time>2026-04-22T15:55:25.003Z</time></trkpt><trkpt lat="44.820581455660786" lon="4.767780564892176"><ele>118.0</ele><time>2026-04-22T15:55:26.003Z</time></trkpt><trkpt lat="44.820574423675275" lon="4.767870430528041"><ele>119.0</ele><time>2026-04-22T15:55:27.003Z</time></trkpt><trkpt lat="44.82058132768037" lon="4.768040777903575"><ele>120.0</ele><time>2026-04-22T15:55:29.003Z</time></trkpt><trkpt lat="44.82059779334116" lon="4.768131894505226"><ele>120.99999999999999</ele><time>2026-04-22T15:55:30.003Z</time></trkpt><trkpt lat="44.82061124794585" lon="4.768221235122818"><ele>122.0</ele><time>2026-04-22T15:55:31.003Z</time></trkpt><trkpt lat="44.820632727487684" lon="4.7683797446007405"><ele>121.99999999999999</ele><time>2026-04-22T15:55:33.003Z</time></trkpt><trkpt lat="44.820658426586014" lon="4.768468723148148"><ele>122.0</ele><time>2026-04-22T15:55:34.003Z</time></trkpt><trkpt lat="44.82068077089515" lon="4.768553499135698"><ele>122.0</ele><time>2026-04-22T15:55:35.003Z</time></trkpt><trkpt lat="44.82071423125486" lon="4.768631855285015"><ele>122.0</ele><time>2026-04-22T15:55:36.003Z</time></trkpt><trkpt lat="44.820748542888666" lon="4.768727006930226"><ele>121.99999999999999</ele><time>2026-04-22T15:55:37.003Z</time></trkpt><trkpt lat="44.82079049694487" lon="4.768895727193159"><ele>122.0</ele><time>2026-04-22T15:55:39.003Z</time></trkpt><trkpt lat="44.82080559722188" lon="4.768983930490194"><ele>123.33333333333333</ele><time>2026-04-22T15:55:40.003Z</time></trkpt><trkpt lat="44.82082409516788" lon="4.769068892322247"><ele>124.66666666666666</ele><time>2026-04-22T15:55:41.003Z</time></trkpt><trkpt lat="44.820851424858255" lon="4.769165141167173"><ele>126.0</ele><time>2026-04-22T15:55:42.003Z</time></trkpt><trkpt lat="44.820883991724536" lon="4.769330202423804"><ele>127.33333333333334</ele><time>2026-04-22T15:55:44.003Z</time></trkpt><trkpt lat="44.820908708330236" lon="4.769423836625503"><ele>128.66666666666669</ele><time>2026-04-22T15:55:45.003Z</time></trkpt><trkpt lat="44.82093477175518" lon="4.76950812075578"><ele>130.0</ele><time>2026-04-22T15:55:46.003Z</time></trkpt><trkpt lat="44.820958909004375" lon="4.769598195039451"><ele>127.57142857142858</ele><time>2026-04-22T15:55:47.003Z</time></trkpt><trkpt lat="44.820983697241026" lon="4.769690069595174"><ele>125.14285714285714</ele><time>2026-04-22T15:55:48.003Z</time></trkpt><trkpt lat="44.82099985651346" lon="4.7697854486381885"><ele>122.71428571428572</ele><time>2026-04-22T15:55:49.003Z</time></trkpt><trkpt lat="44.82102499325842" lon="4.769875960787751"><ele>120.28571428571429</ele><time>2026-04-22T15:55:50.003Z</time></trkpt><trkpt lat="44.821049697616544" lon="4.7699848184002525"><ele>117.85714285714286</ele><time>2026-04-22T15:55:51.003Z</time></trkpt><trkpt lat="44.82107306001141" lon="4.770080198746659"><ele>115.42857142857143</ele><time>2026-04-22T15:55:52.003Z</time></trkpt><trkpt lat="44.82110254226863" lon="4.770176376683789"><ele>113.0</ele><time>2026-04-22T15:55:53.003Z</time></trkpt><trkpt lat="44.82111564872033" lon="4.770264752519323"><ele>112.99999999999999</ele><time>2026-04-22T15:55:54.003Z</time></trkpt><trkpt lat="44.82113692696169" lon="4.770359713480145"><ele>113.0</ele><time>2026-04-22T15:55:55.003Z</time></trkpt><trkpt lat="44.821158835462015" lon="4.770447872245188"><ele>113.0</ele><time>2026-04-22T15:55:56.003Z</time></trkpt><trkpt lat="44.8211825422675" lon="4.770540403308802"><ele>113.0</ele><time>2026-04-22T15:55:57.003Z</time></trkpt><trkpt lat="44.82119838395174" lon="4.770628740449451"><ele>112.99999999999999</ele><time>2026-04-22T15:55:58.003Z</time></trkpt><trkpt lat="44.82123324783353" lon="4.770751867842049"><ele>113.0</ele><time>2026-04-22T15:56:00.003Z</time></trkpt><trkpt lat="44.82126356815481" lon="4.770885149589226"><ele>113.0</ele><time>2026-04-22T15:56:02.003Z</time></trkpt><trkpt lat="44.821305732215464" lon="4.771013780909745"><ele>113.00000000000001</ele><time>2026-04-22T15:56:04.003Z</time></trkpt><trkpt lat="44.82134938850723" lon="4.771181051833139"><ele>113.00000000000001</ele><time>2026-04-22T15:56:06.003Z</time></trkpt><trkpt lat="44.82137031479038" lon="4.7713383553365345"><ele>113.0</ele><time>2026-04-22T15:56:08.003Z</time></trkpt><trkpt lat="44.82139987815052" lon="4.771433005493189"><ele>113.0</ele><time>2026-04-22T15:56:09.003Z</time></trkpt><trkpt lat="44.821423000756745" lon="4.771533498191521"><ele>114.0</ele><time>2026-04-22T15:56:10.003Z</time></trkpt><trkpt lat="44.82144553167846" lon="4.771622345989242"><ele>115.00000000000001</ele><time>2026-04-22T15:56:11.003Z</time></trkpt><trkpt lat="44.8214597740736" lon="4.77171186120204"><ele>116.00000000000001</ele><time>2026-04-22T15:56:12.003Z</time></trkpt><trkpt lat="44.82148530513399" lon="4.771901634057069"><ele>117.0</ele><time>2026-04-22T15:56:14.003Z</time></trkpt><trkpt lat="44.821510447321856" lon="4.772069421141766"><ele>118.0</ele><time>2026-04-22T15:56:16.003Z</time></trkpt><trkpt lat="44.82153353336427" lon="4.772251708600099"><ele>119.25</ele><time>2026-04-22T15:56:18.003Z</time></trkpt><trkpt lat="44.82152952400735" lon="4.772431248537097"><ele>120.5</ele><time>2026-04-22T15:56:20.003Z</time></trkpt><trkpt lat="44.82152967307619" lon="4.772525169048083"><ele>121.75</ele><time>2026-04-22T15:56:21.003Z</time></trkpt><trkpt lat="44.821540694609304" lon="4.772702474525022"><ele>123.0</ele><time>2026-04-22T15:56:23.003Z</time></trkpt><trkpt lat="44.82154038716089" lon="4.772884989789252"><ele>123.33333333333333</ele><time>2026-04-22T15:56:25.003Z</time></trkpt><trkpt lat="44.82154565112107" lon="4.7729836312236325"><ele>123.66666666666666</ele><time>2026-04-22T15:56:26.003Z</time></trkpt><trkpt lat="44.82155472647264" lon="4.773078538267096"><ele>124.0</ele><time>2026-04-22T15:56:27.003Z</time></trkpt><trkpt lat="44.82156442093976" lon="4.773171058061581"><ele>124.33333333333333</ele><time>2026-04-22T15:56:28.003Z</time></trkpt><trkpt lat="44.82155419293724" lon="4.773349322753747"><ele>124.66666666666666</ele><time>2026-04-22T15:56:30.003Z</time></trkpt><trkpt lat="44.82155168269695" lon="4.773442964445014"><ele>125.0</ele><time>2026-04-22T15:56:31.003Z</time></trkpt><trkpt lat="44.821559700145826" lon="4.773537338419857"><ele>124.99999999999999</ele><time>2026-04-22T15:56:32.003Z</time></trkpt><trkpt lat="44.821562772539146" lon="4.773626983010351"><ele>125.0</ele><time>2026-04-22T15:56:33.003Z</time></trkpt><trkpt lat="44.82156188048838" lon="4.773793934191943"><ele>125.0</ele><time>2026-04-22T15:56:35.003Z</time></trkpt><trkpt lat="44.821559636046246" lon="4.773887865744862"><ele>125.0</ele><time>2026-04-22T15:56:36.003Z</time></trkpt><trkpt lat="44.821562365438055" lon="4.774055273886011"><ele>124.99999999999999</ele><time>2026-04-22T15:56:38.003Z</time></trkpt><trkpt lat="44.82156803315156" lon="4.77414649794502"><ele>125.0</ele><time>2026-04-22T15:56:39.003Z</time></trkpt><trkpt lat="44.82157527025258" lon="4.774325651659346"><ele>126.0</ele><time>2026-04-22T15:56:41.003Z</time></trkpt><trkpt lat="44.82160191195188" lon="4.774484750115161"><ele>127.0</ele><time>2026-04-22T15:56:43.003Z</time></trkpt><trkpt lat="44.821608801381146" lon="4.774649285523001"><ele>128.0</ele><time>2026-04-22T15:56:45.003Z</time></trkpt><trkpt lat="44.82160396857273" lon="4.7748065028170705"><ele>129.0</ele><time>2026-04-22T15:56:47.003Z</time></trkpt><trkpt lat="44.8216168754093" lon="4.77496613312691"><ele>129.0</ele><time>2026-04-22T15:56:49.003Z</time></trkpt><trkpt lat="44.821654025355855" lon="4.775118033153613"><ele>129.0</ele><time>2026-04-22T15:56:51.003Z</time></trkpt><trkpt lat="44.82166971304686" lon="4.775264689011177"><ele>129.0</ele><time>2026-04-22T15:56:53.003Z</time></trkpt><trkpt lat="44.821697731278185" lon="4.775425958114724"><ele>129.0</ele><time>2026-04-22T15:56:55.002Z</time></trkpt><trkpt lat="44.82171653691342" lon="4.775587350283789"><ele>129.8</ele><time>2026-04-22T15:56:57.002Z</time></trkpt><trkpt lat="44.82172831722207" lon="4.775676263022275"><ele>130.60000000000002</ele><time>2026-04-22T15:56:58.003Z</time></trkpt><trkpt lat="44.82174785343671" lon="4.775830415380944"><ele>131.4</ele><time>2026-04-22T15:57:00.003Z</time></trkpt><trkpt lat="44.82176650652896" lon="4.775995267433363"><ele>132.20000000000002</ele><time>2026-04-22T15:57:02.003Z</time></trkpt><trkpt lat="44.82177342055653" lon="4.776086172295046"><ele>133.0</ele><time>2026-04-22T15:57:03.003Z</time></trkpt><trkpt lat="44.82178429191355" lon="4.776242044307672"><ele>133.0</ele><time>2026-04-22T15:57:05.002Z</time></trkpt><trkpt lat="44.82180174996747" lon="4.776406828920564"><ele>133.0</ele><time>2026-04-22T15:57:07.003Z</time></trkpt><trkpt lat="44.82180153161316" lon="4.776501710726347"><ele>133.0</ele><time>2026-04-22T15:57:08.003Z</time></trkpt><trkpt lat="44.82181974564507" lon="4.776657674826779"><ele>133.0</ele><time>2026-04-22T15:57:10.003Z</time></trkpt><trkpt lat="44.8218387214027" lon="4.776809105402288"><ele>133.0</ele><time>2026-04-22T15:57:12.003Z</time></trkpt><trkpt lat="44.82188115273835" lon="4.776952232003151"><ele>129.0</ele><time>2026-04-22T15:57:14.003Z</time></trkpt><trkpt lat="44.82192981064453" lon="4.777101137744548"><ele>125.0</ele><time>2026-04-22T15:57:16.003Z</time></trkpt><trkpt lat="44.821969348916355" lon="4.777255486485416"><ele>121.0</ele><time>2026-04-22T15:57:18.003Z</time></trkpt><trkpt lat="44.82199950890392" lon="4.777340257517154"><ele>117.0</ele><time>2026-04-22T15:57:19.003Z</time></trkpt><trkpt lat="44.822028146439166" lon="4.777421231843997"><ele>113.00000000000001</ele><time>2026-04-22T15:57:20.003Z</time></trkpt><trkpt lat="44.82205173933081" lon="4.777503711439894"><ele>109.0</ele><time>2026-04-22T15:57:21.003Z</time></trkpt><trkpt lat="44.82209035606528" lon="4.777656809053029"><ele>109.2</ele><time>2026-04-22T15:57:23.003Z</time></trkpt><trkpt lat="44.82210198699895" lon="4.777810158496538"><ele>109.4</ele><time>2026-04-22T15:57:25.003Z</time></trkpt><trkpt lat="44.822147583152066" lon="4.777967394706895"><ele>109.6</ele><time>2026-04-22T15:57:27.003Z</time></trkpt><trkpt lat="44.82215148430821" lon="4.7780599808128"><ele>109.8</ele><time>2026-04-22T15:57:28.003Z</time></trkpt><trkpt lat="44.82216395778336" lon="4.778231901729406"><ele>110.0</ele><time>2026-04-22T15:57:30.003Z</time></trkpt><trkpt lat="44.822155133083285" lon="4.778404214256467"><ele>110.0</ele><time>2026-04-22T15:57:32.003Z</time></trkpt><trkpt lat="44.82215764881961" lon="4.778495041213189"><ele>110.0</ele><time>2026-04-22T15:57:33.003Z</time></trkpt><trkpt lat="44.82217610417643" lon="4.778668531880206"><ele>110.0</ele><time>2026-04-22T15:57:35.003Z</time></trkpt><trkpt lat="44.82218582179962" lon="4.778756745442084"><ele>110.0</ele><time>2026-04-22T15:57:36.003Z</time></trkpt><trkpt lat="44.822195169720594" lon="4.778935742472355"><ele>110.0</ele><time>2026-04-22T15:57:38.003Z</time></trkpt><trkpt lat="44.8222061730093" lon="4.779113354725037"><ele>109.99999999999999</ele><time>2026-04-22T15:57:40.003Z</time></trkpt><trkpt lat="44.822211628194005" lon="4.779293112822319"><ele>110.0</ele><time>2026-04-22T15:57:42.003Z</time></trkpt><trkpt lat="44.82222310988461" lon="4.779381361777766"><ele>110.0</ele><time>2026-04-22T15:57:43.003Z</time></trkpt><trkpt lat="44.822234356046565" lon="4.779472516433576"><ele>110.0</ele><time>2026-04-22T15:57:44.003Z</time></trkpt><trkpt lat="44.82223915577798" lon="4.779563770011061"><ele>109.99999999999999</ele><time>2026-04-22T15:57:45.003Z</time></trkpt><trkpt lat="44.82223643520162" lon="4.7797340286041194"><ele>110.0</ele><time>2026-04-22T15:57:47.003Z</time></trkpt><trkpt lat="44.82223535265909" lon="4.7798306398101085"><ele>109.99999999999999</ele><time>2026-04-22T15:57:48.003Z</time></trkpt><trkpt lat="44.82223896097793" lon="4.7799211738303145"><ele>110.0</ele><time>2026-04-22T15:57:49.003Z</time></trkpt><trkpt lat="44.82221783991038" lon="4.7800934092565095"><ele>110.0</ele><time>2026-04-22T15:57:51.003Z</time></trkpt><trkpt lat="44.82219317342748" lon="4.780256960146591"><ele>110.0</ele><time>2026-04-22T15:57:53.003Z</time></trkpt><trkpt lat="44.82217639879914" lon="4.7803495662007"><ele>109.99999999999999</ele><time>2026-04-22T15:57:54.003Z</time></trkpt><trkpt lat="44.82216192666663" lon="4.780442131661607"><ele>110.0</ele><time>2026-04-22T15:57:55.003Z</time></trkpt><trkpt lat="44.822122462045286" lon="4.780606642102475"><ele>109.49999999999999</ele><time>2026-04-22T15:57:57.003Z</time></trkpt><trkpt lat="44.82209443106754" lon="4.780782838435138"><ele>109.0</ele><time>2026-04-22T15:57:59.003Z</time></trkpt><trkpt lat="44.82207218484793" lon="4.780871935121099"><ele>108.5</ele><time>2026-04-22T15:58:00.003Z</time></trkpt><trkpt lat="44.82204774460642" lon="4.780965383301372"><ele>108.0</ele><time>2026-04-22T15:58:01.003Z</time></trkpt><trkpt lat="44.822032326538526" lon="4.781055567375904"><ele>107.49999999999999</ele><time>2026-04-22T15:58:02.003Z</time></trkpt><trkpt lat="44.82201232457289" lon="4.781145681478296"><ele>107.0</ele><time>2026-04-22T15:58:03.003Z</time></trkpt><trkpt lat="44.82197736093672" lon="4.781220387847682"><ele>106.28571428571429</ele><time>2026-04-22T15:58:04.003Z</time></trkpt><trkpt lat="44.821968492468955" lon="4.781313710772137"><ele>105.57142857142857</ele><time>2026-04-22T15:58:05.003Z</time></trkpt><trkpt lat="44.82194736470311" lon="4.781411879958155"><ele>104.85714285714286</ele><time>2026-04-22T15:58:06.003Z</time></trkpt><trkpt lat="44.82192887179288" lon="4.781501974932521"><ele>104.14285714285714</ele><time>2026-04-22T15:58:07.003Z</time></trkpt><trkpt lat="44.82190540525004" lon="4.78158552323009"><ele>103.42857142857143</ele><time>2026-04-22T15:58:08.003Z</time></trkpt><trkpt lat="44.82188417132323" lon="4.78167371190704"><ele>102.71428571428572</ele><time>2026-04-22T15:58:09.003Z</time></trkpt><trkpt lat="44.8218601605913" lon="4.78175756274417"><ele>102.0</ele><time>2026-04-22T15:58:10.003Z</time></trkpt><trkpt lat="44.82182712945027" lon="4.7818441412814785"><ele>104.0</ele><time>2026-04-22T15:58:11.003Z</time></trkpt><trkpt lat="44.821795661409055" lon="4.781924394433503"><ele>106.0</ele><time>2026-04-22T15:58:12.003Z</time></trkpt><trkpt lat="44.82176258556351" lon="4.78200491354333"><ele>108.0</ele><time>2026-04-22T15:58:13.003Z</time></trkpt><trkpt lat="44.82168781944922" lon="4.782151931944902"><ele>110.0</ele><time>2026-04-22T15:58:15.003Z</time></trkpt><trkpt lat="44.8216439040819" lon="4.782226487184309"><ele>112.0</ele><time>2026-04-22T15:58:16.003Z</time></trkpt><trkpt lat="44.82160312241114" lon="4.782302347581981"><ele>114.0</ele><time>2026-04-22T15:58:17.003Z</time></trkpt><trkpt lat="44.82156903711219" lon="4.782377533440423"><ele>114.0</ele><time>2026-04-22T15:58:18.003Z</time></trkpt><trkpt lat="44.82152212075669" lon="4.782449411385347"><ele>114.0</ele><time>2026-04-22T15:58:19.003Z</time></trkpt><trkpt lat="44.82147651681151" lon="4.782517989098482"><ele>114.0</ele><time>2026-04-22T15:58:20.003Z</time></trkpt><trkpt lat="44.821427007525934" lon="4.782580014109592"><ele>114.0</ele><time>2026-04-22T15:58:21.003Z</time></trkpt><trkpt lat="44.8213224183233" lon="4.782683483180036"><ele>114.0</ele><time>2026-04-22T15:58:23.003Z</time></trkpt><trkpt lat="44.82123877125518" lon="4.782815833909446"><ele>114.2</ele><time>2026-04-22T15:58:25.003Z</time></trkpt><trkpt lat="44.821129346905664" lon="4.782888488585341"><ele>114.4</ele><time>2026-04-22T15:58:27.003Z</time></trkpt><trkpt lat="44.821069156800505" lon="4.782928539020607"><ele>114.6</ele><time>2026-04-22T15:58:28.003Z</time></trkpt><trkpt lat="44.821005105008155" lon="4.782967809458351"><ele>114.8</ele><time>2026-04-22T15:58:29.003Z</time></trkpt><trkpt lat="44.82088884257155" lon="4.7830550289805425"><ele>115.0</ele><time>2026-04-22T15:58:31.003Z</time></trkpt><trkpt lat="44.8208310792547" lon="4.783102512137732"><ele>115.0</ele><time>2026-04-22T15:58:32.003Z</time></trkpt><trkpt lat="44.820770447097935" lon="4.783138533525228"><ele>115.0</ele><time>2026-04-22T15:58:33.003Z</time></trkpt><trkpt lat="44.82064943495377" lon="4.783207396114243"><ele>115.0</ele><time>2026-04-22T15:58:35.003Z</time></trkpt><trkpt lat="44.820553590182065" lon="4.783305655340049"><ele>115.0</ele><time>2026-04-22T15:58:37.003Z</time></trkpt><trkpt lat="44.820451685580075" lon="4.783388282601987"><ele>115.0</ele><time>2026-04-22T15:58:39.003Z</time></trkpt><trkpt lat="44.82040130556773" lon="4.783443412679137"><ele>114.8</ele><time>2026-04-22T15:58:40.003Z</time></trkpt><trkpt lat="44.820304015609615" lon="4.783560453429734"><ele>114.6</ele><time>2026-04-22T15:58:42.003Z</time></trkpt><trkpt lat="44.82020406938811" lon="4.783661417278064"><ele>114.4</ele><time>2026-04-22T15:58:44.003Z</time></trkpt><trkpt lat="44.82015841509279" lon="4.783722862203728"><ele>114.2</ele><time>2026-04-22T15:58:45.003Z</time></trkpt><trkpt lat="44.82010313489728" lon="4.783796746637711"><ele>114.0</ele><time>2026-04-22T15:58:46.003Z</time></trkpt><trkpt lat="44.82005436499823" lon="4.783865271026049"><ele>114.0</ele><time>2026-04-22T15:58:47.003Z</time></trkpt><trkpt lat="44.81996008793079" lon="4.783971523768698"><ele>114.0</ele><time>2026-04-22T15:58:49.003Z</time></trkpt><trkpt lat="44.81986724561386" lon="4.784075940144991"><ele>114.0</ele><time>2026-04-22T15:58:51.003Z</time></trkpt><trkpt lat="44.81981738608988" lon="4.78413147023825"><ele>114.0</ele><time>2026-04-22T15:58:52.003Z</time></trkpt><trkpt lat="44.819772728334414" lon="4.784212767029904"><ele>114.0</ele><time>2026-04-22T15:58:53.003Z</time></trkpt><trkpt lat="44.819666739486124" lon="4.784318478974203"><ele>113.80000000000001</ele><time>2026-04-22T15:58:55.003Z</time></trkpt><trkpt lat="44.81956695591867" lon="4.784447627297646"><ele>113.60000000000001</ele><time>2026-04-22T15:58:57.003Z</time></trkpt><trkpt lat="44.8195137876931" lon="4.784500455951832"><ele>113.4</ele><time>2026-04-22T15:58:58.003Z</time></trkpt><trkpt lat="44.81941853883626" lon="4.7846199091430215"><ele>113.2</ele><time>2026-04-22T15:59:00.003Z</time></trkpt><trkpt lat="44.81933470820706" lon="4.784742709436992"><ele>113.0</ele><time>2026-04-22T15:59:02.003Z</time></trkpt><trkpt lat="44.819234939054326" lon="4.784836144501339"><ele>113.0</ele><time>2026-04-22T15:59:04.003Z</time></trkpt><trkpt lat="44.81918765720517" lon="4.7849136165809485"><ele>113.00000000000001</ele><time>2026-04-22T15:59:05.003Z</time></trkpt><trkpt lat="44.81913815973094" lon="4.784970340627312"><ele>113.00000000000001</ele><time>2026-04-22T15:59:06.003Z</time></trkpt><trkpt lat="44.819045250466665" lon="4.7850579723899935"><ele>113.0</ele><time>2026-04-22T15:59:08.003Z</time></trkpt><trkpt lat="44.818987858270674" lon="4.785118932515818"><ele>113.0</ele><time>2026-04-22T15:59:09.003Z</time></trkpt><trkpt lat="44.8188948879399" lon="4.785247126108365"><ele>111.99999999999999</ele><time>2026-04-22T15:59:11.003Z</time></trkpt><trkpt lat="44.818837852926386" lon="4.785307403242361"><ele>111.0</ele><time>2026-04-22T15:59:12.003Z</time></trkpt><trkpt lat="44.81878315765701" lon="4.785369814739442"><ele>110.0</ele><time>2026-04-22T15:59:13.003Z</time></trkpt><trkpt lat="44.81873439447541" lon="4.785437763988684"><ele>109.0</ele><time>2026-04-22T15:59:14.003Z</time></trkpt><trkpt lat="44.81868926397562" lon="4.7855053975543305"><ele>107.99999999999999</ele><time>2026-04-22T15:59:15.003Z</time></trkpt><trkpt lat="44.81859705394678" lon="4.7856180222696425"><ele>107.0</ele><time>2026-04-22T15:59:17.003Z</time></trkpt><trkpt lat="44.81850856259884" lon="4.785737433902276"><ele>107.0</ele><time>2026-04-22T15:59:19.003Z</time></trkpt><trkpt lat="44.818419050970434" lon="4.78586300399557"><ele>106.99999999999999</ele><time>2026-04-22T15:59:21.003Z</time></trkpt><trkpt lat="44.81837447588126" lon="4.785926508914918"><ele>106.99999999999999</ele><time>2026-04-22T15:59:22.003Z</time></trkpt><trkpt lat="44.818326698110496" lon="4.785986628528739"><ele>107.0</ele><time>2026-04-22T15:59:23.003Z</time></trkpt><trkpt lat="44.81823812496692" lon="4.786103845170841"><ele>107.0</ele><time>2026-04-22T15:59:25.003Z</time></trkpt><trkpt lat="44.81813919840718" lon="4.786197645176402"><ele>107.0</ele><time>2026-04-22T15:59:27.003Z</time></trkpt><trkpt lat="44.818049245986224" lon="4.786313287143733"><ele>106.99999999999999</ele><time>2026-04-22T15:59:29.003Z</time></trkpt><trkpt lat="44.81799471570959" lon="4.786367995146405"><ele>106.99999999999999</ele><time>2026-04-22T15:59:30.003Z</time></trkpt><trkpt lat="44.817902360048855" lon="4.786464964463711"><ele>107.0</ele><time>2026-04-22T15:59:32.003Z</time></trkpt><trkpt lat="44.81782715248626" lon="4.7865653099443835"><ele>107.0</ele><time>2026-04-22T15:59:34.003Z</time></trkpt><trkpt lat="44.81771857949635" lon="4.78665180749709"><ele>107.39999999999999</ele><time>2026-04-22T15:59:36.003Z</time></trkpt><trkpt lat="44.81761640169213" lon="4.786728076745559"><ele>107.79999999999998</ele><time>2026-04-22T15:59:38.003Z</time></trkpt><trkpt lat="44.817512881612515" lon="4.78679187464463"><ele>108.2</ele><time>2026-04-22T15:59:40.003Z</time></trkpt><trkpt lat="44.81742866534891" lon="4.7868484481449824"><ele>108.6</ele><time>2026-04-22T15:59:42.003Z</time></trkpt><trkpt lat="44.817345689331034" lon="4.786907480783759"><ele>109.0</ele><time>2026-04-22T15:59:44.003Z</time></trkpt><trkpt lat="44.81729016481379" lon="4.786973996000489"><ele>109.00000000000001</ele><time>2026-04-22T15:59:47.003Z</time></trkpt><trkpt lat="44.81722582808583" lon="4.787014323932371"><ele>109.0</ele><time>2026-04-22T15:59:54.003Z</time></trkpt><trkpt lat="44.81716526535104" lon="4.787064099890162"><ele>109.0</ele><time>2026-04-22T15:59:57.003Z</time></trkpt><trkpt lat="44.81709684347473" lon="4.787102504129627"><ele>109.0</ele><time>2026-04-22T15:59:59.003Z</time></trkpt><trkpt lat="44.8170176797896" lon="4.787170970147513"><ele>109.00000000000001</ele><time>2026-04-22T16:00:01.003Z</time></trkpt><trkpt lat="44.81694787231351" lon="4.787250269309776"><ele>109.0</ele><time>2026-04-22T16:00:03.003Z</time></trkpt><trkpt lat="44.81687290417049" lon="4.787345017699357"><ele>109.0</ele><time>2026-04-22T16:00:05.003Z</time></trkpt><trkpt lat="44.81679514218484" lon="4.787441317949822"><ele>109.0</ele><time>2026-04-22T16:00:07.003Z</time></trkpt><trkpt lat="44.816720347800874" lon="4.787546988419244"><ele>109.0</ele><time>2026-04-22T16:00:09.003Z</time></trkpt><trkpt lat="44.8166427000441" lon="4.787651059027525"><ele>109.0</ele><time>2026-04-22T16:00:11.003Z</time></trkpt><trkpt lat="44.81658997634104" lon="4.787797417858338"><ele>109.0</ele><time>2026-04-22T16:00:13.003Z</time></trkpt><trkpt lat="44.816527673198706" lon="4.787925274541264"><ele>109.0</ele><time>2026-04-22T16:00:15.003Z</time></trkpt><trkpt lat="44.81646927223558" lon="4.788067905487927"><ele>109.0</ele><time>2026-04-22T16:00:17.003Z</time></trkpt><trkpt lat="44.81640661506682" lon="4.788195113914463"><ele>109.0</ele><time>2026-04-22T16:00:19.003Z</time></trkpt><trkpt lat="44.81636177336326" lon="4.788330385630294"><ele>109.0</ele><time>2026-04-22T16:00:21.003Z</time></trkpt><trkpt lat="44.816309370024044" lon="4.788460831796718"><ele>109.0</ele><time>2026-04-22T16:00:23.003Z</time></trkpt><trkpt lat="44.81625310240059" lon="4.788597823409145"><ele>108.4</ele><time>2026-04-22T16:00:25.003Z</time></trkpt><trkpt lat="44.81620509587421" lon="4.788729916502078"><ele>107.80000000000001</ele><time>2026-04-22T16:00:27.003Z</time></trkpt><trkpt lat="44.816154535470574" lon="4.788849857606539"><ele>107.19999999999999</ele><time>2026-04-22T16:00:29.003Z</time></trkpt><trkpt lat="44.81609834291742" lon="4.788978870193949"><ele>106.6</ele><time>2026-04-22T16:00:31.003Z</time></trkpt><trkpt lat="44.81603985906508" lon="4.789104306299749"><ele>106.0</ele><time>2026-04-22T16:00:33.003Z</time></trkpt><trkpt lat="44.815989728915596" lon="4.789244551779701"><ele>107.19999999999999</ele><time>2026-04-22T16:00:35.003Z</time></trkpt><trkpt lat="44.81593575736749" lon="4.78936173171162"><ele>108.39999999999999</ele><time>2026-04-22T16:00:37.003Z</time></trkpt><trkpt lat="44.81587917316066" lon="4.789482074366987"><ele>109.6</ele><time>2026-04-22T16:00:39.003Z</time></trkpt><trkpt lat="44.815831165090245" lon="4.789602303050196"><ele>110.8</ele><time>2026-04-22T16:00:41.003Z</time></trkpt><trkpt lat="44.81577959036972" lon="4.789697882382964"><ele>112.0</ele><time>2026-04-22T16:00:43.003Z</time></trkpt><trkpt lat="44.815750308036705" lon="4.7897890450811715"><ele>112.0</ele><time>2026-04-22T16:00:45.003Z</time></trkpt><trkpt lat="44.81572709002189" lon="4.789877523045311"><ele>111.99999999999999</ele><time>2026-04-22T16:00:47.003Z</time></trkpt><trkpt lat="44.815678222500026" lon="4.7899859895814325"><ele>111.99999999999999</ele><time>2026-04-22T16:00:49.003Z</time></trkpt><trkpt lat="44.815622695033305" lon="4.790128801544907"><ele>112.0</ele><time>2026-04-22T16:00:51.003Z</time></trkpt><trkpt lat="44.81558300261906" lon="4.790255098805404"><ele>112.0</ele><time>2026-04-22T16:00:53.003Z</time></trkpt><trkpt lat="44.81552015997103" lon="4.790374902186009"><ele>111.39999999999999</ele><time>2026-04-22T16:00:55.003Z</time></trkpt><trkpt lat="44.815467026300006" lon="4.790484717946043"><ele>110.79999999999998</ele><time>2026-04-22T16:00:57.003Z</time></trkpt><trkpt lat="44.81541216543795" lon="4.7905892092595765"><ele>110.2</ele><time>2026-04-22T16:00:59.003Z</time></trkpt><trkpt lat="44.81535200969398" lon="4.790684335046424"><ele>109.6</ele><time>2026-04-22T16:01:01.003Z</time></trkpt><trkpt lat="44.81529486904511" lon="4.7907823147928275"><ele>109.0</ele><time>2026-04-22T16:01:03.003Z</time></trkpt><trkpt lat="44.81523553502076" lon="4.79089796344232"><ele>109.0</ele><time>2026-04-22T16:01:05.003Z</time></trkpt><trkpt lat="44.81517164502809" lon="4.790992629950147"><ele>109.0</ele><time>2026-04-22T16:01:07.003Z</time></trkpt><trkpt lat="44.815119052353126" lon="4.791114768790367"><ele>109.0</ele><time>2026-04-22T16:01:09.004Z</time></trkpt><trkpt lat="44.81506283902731" lon="4.791229861235652"><ele>109.0</ele><time>2026-04-22T16:01:11.003Z</time></trkpt><trkpt lat="44.81501519866355" lon="4.7913684250888915"><ele>109.0</ele><time>2026-04-22T16:01:13.003Z</time></trkpt><trkpt lat="44.81496244635845" lon="4.791487519880886"><ele>109.83333333333334</ele><time>2026-04-22T16:01:15.003Z</time></trkpt><trkpt lat="44.81494164633406" lon="4.791603619562917"><ele>110.66666666666667</ele><time>2026-04-22T16:01:17.004Z</time></trkpt><trkpt lat="44.81491184527489" lon="4.791714689054008"><ele>111.5</ele><time>2026-04-22T16:01:19.003Z</time></trkpt><trkpt lat="44.81488358266074" lon="4.791834781225424"><ele>112.33333333333334</ele><time>2026-04-22T16:01:21.003Z</time></trkpt><trkpt lat="44.81487458830861" lon="4.791927971062576"><ele>113.16666666666667</ele><time>2026-04-22T16:01:23.003Z</time></trkpt><trkpt lat="44.81487418045149" lon="4.792039254344796"><ele>114.0</ele><time>2026-04-22T16:01:25.003Z</time></trkpt><trkpt lat="44.814865107698395" lon="4.792128176104146"><ele>114.0</ele><time>2026-04-22T16:01:27.003Z</time></trkpt><trkpt lat="44.81485576541788" lon="4.792263558213215"><ele>114.0</ele><time>2026-04-22T16:01:30.003Z</time></trkpt><trkpt lat="44.81484612622662" lon="4.792378848551917"><ele>114.0</ele><time>2026-04-22T16:01:32.003Z</time></trkpt><trkpt lat="44.8148495491307" lon="4.792512014904915"><ele>114.0</ele><time>2026-04-22T16:01:34.003Z</time></trkpt><trkpt lat="44.81485819313751" lon="4.792654811026054"><ele>114.0</ele><time>2026-04-22T16:01:36.003Z</time></trkpt><trkpt lat="44.8148853567457" lon="4.792812797459628"><ele>114.4</ele><time>2026-04-22T16:01:38.003Z</time></trkpt><trkpt lat="44.814895141970574" lon="4.7929778958308"><ele>114.80000000000001</ele><time>2026-04-22T16:01:40.003Z</time></trkpt><trkpt lat="44.814901658433726" lon="4.7930667425223605"><ele>115.19999999999999</ele><time>2026-04-22T16:01:41.003Z</time></trkpt><trkpt lat="44.814909632584154" lon="4.793235324203719"><ele>115.6</ele><time>2026-04-22T16:01:43.003Z</time></trkpt><trkpt lat="44.81491362620919" lon="4.793399481223597"><ele>116.0</ele><time>2026-04-22T16:01:45.003Z</time></trkpt><trkpt lat="44.81489146588257" lon="4.79356801148724"><ele>117.0</ele><time>2026-04-22T16:01:47.003Z</time></trkpt><trkpt lat="44.8148469109771" lon="4.7937202290753715"><ele>118.0</ele><time>2026-04-22T16:01:49.003Z</time></trkpt><trkpt lat="44.81481745245888" lon="4.7938071003459415"><ele>119.0</ele><time>2026-04-22T16:01:50.003Z</time></trkpt><trkpt lat="44.814733818111804" lon="4.793932713284038"><ele>120.0</ele><time>2026-04-22T16:01:52.003Z</time></trkpt><trkpt lat="44.814660191352175" lon="4.794066758805707"><ele>121.0</ele><time>2026-04-22T16:01:54.003Z</time></trkpt><trkpt lat="44.8145727898792" lon="4.794195278704604"><ele>121.00000000000001</ele><time>2026-04-22T16:01:56.003Z</time></trkpt><trkpt lat="44.81452439778354" lon="4.794258176711363"><ele>121.0</ele><time>2026-04-22T16:01:57.003Z</time></trkpt><trkpt lat="44.81443670814076" lon="4.794358157271286"><ele>121.0</ele><time>2026-04-22T16:01:59.003Z</time></trkpt><trkpt lat="44.81438071566289" lon="4.794401711030095"><ele>121.0</ele><time>2026-04-22T16:02:00.003Z</time></trkpt><trkpt lat="44.814323611521104" lon="4.794441564862286"><ele>121.00000000000001</ele><time>2026-04-22T16:02:01.003Z</time></trkpt><trkpt lat="44.814260613777165" lon="4.794452910532525"><ele>121.0</ele><time>2026-04-22T16:02:02.003Z</time></trkpt><trkpt lat="44.81413858851062" lon="4.794461776646123"><ele>121.14285714285714</ele><time>2026-04-22T16:02:04.003Z</time></trkpt><trkpt lat="44.814065981222306" lon="4.794452074007448"><ele>121.28571428571428</ele><time>2026-04-22T16:02:05.003Z</time></trkpt><trkpt lat="44.81399912457748" lon="4.794444000896471"><ele>121.42857142857142</ele><time>2026-04-22T16:02:06.003Z</time></trkpt><trkpt lat="44.8139266317585" lon="4.79442375310286"><ele>121.57142857142856</ele><time>2026-04-22T16:02:07.003Z</time></trkpt><trkpt lat="44.81384915192104" lon="4.7944016331114225"><ele>121.71428571428571</ele><time>2026-04-22T16:02:08.003Z</time></trkpt><trkpt lat="44.81377928725714" lon="4.7943755610239185"><ele>121.85714285714283</ele><time>2026-04-22T16:02:09.003Z</time></trkpt><trkpt lat="44.81370502256149" lon="4.794360746054425"><ele>121.99999999999999</ele><time>2026-04-22T16:02:10.003Z</time></trkpt><trkpt lat="44.81363266872755" lon="4.7943520241508555"><ele>122.0</ele><time>2026-04-22T16:02:11.003Z</time></trkpt><trkpt lat="44.81349772586268" lon="4.794356610997344"><ele>122.0</ele><time>2026-04-22T16:02:13.003Z</time></trkpt><trkpt lat="44.813379035410605" lon="4.794398342620533"><ele>122.0</ele><time>2026-04-22T16:02:15.003Z</time></trkpt><trkpt lat="44.81330560642858" lon="4.794426185932433"><ele>122.0</ele><time>2026-04-22T16:02:16.003Z</time></trkpt><trkpt lat="44.81316552956364" lon="4.794477228370273"><ele>121.19999999999999</ele><time>2026-04-22T16:02:18.003Z</time></trkpt><trkpt lat="44.81310098392815" lon="4.794501087604405"><ele>120.39999999999999</ele><time>2026-04-22T16:02:19.003Z</time></trkpt><trkpt lat="44.812992583455866" lon="4.794539319319249"><ele>119.60000000000001</ele><time>2026-04-22T16:02:21.003Z</time></trkpt><trkpt lat="44.81288918964195" lon="4.79458778734948"><ele>118.80000000000001</ele><time>2026-04-22T16:02:23.003Z</time></trkpt><trkpt lat="44.81282192445441" lon="4.794648107585026"><ele>118.0</ele><time>2026-04-22T16:02:25.003Z</time></trkpt><trkpt lat="44.81273757398746" lon="4.794703558895814"><ele>118.0</ele><time>2026-04-22T16:02:27.003Z</time></trkpt><trkpt lat="44.81266473744174" lon="4.794744250002244"><ele>118.00000000000001</ele><time>2026-04-22T16:02:29.003Z</time></trkpt><trkpt lat="44.81259673940123" lon="4.794822688425286"><ele>118.00000000000001</ele><time>2026-04-22T16:02:32.003Z</time></trkpt><trkpt lat="44.812568550388455" lon="4.794940728169266"><ele>118.0</ele><time>2026-04-22T16:02:34.003Z</time></trkpt><trkpt lat="44.8125443006642" lon="4.795089960709128"><ele>118.0</ele><time>2026-04-22T16:02:36.003Z</time></trkpt><trkpt lat="44.8124963304583" lon="4.795247095199598"><ele>116.71428571428571</ele><time>2026-04-22T16:02:38.003Z</time></trkpt><trkpt lat="44.81245908231848" lon="4.795329772807894"><ele>115.42857142857143</ele><time>2026-04-22T16:02:39.003Z</time></trkpt><trkpt lat="44.812427664507695" lon="4.795417163601962"><ele>114.14285714285714</ele><time>2026-04-22T16:02:40.003Z</time></trkpt><trkpt lat="44.81239632325681" lon="4.795501786125184"><ele>112.85714285714286</ele><time>2026-04-22T16:02:41.003Z</time></trkpt><trkpt lat="44.81236967890123" lon="4.795588582333444"><ele>111.57142857142858</ele><time>2026-04-22T16:02:42.003Z</time></trkpt><trkpt lat="44.812339129579165" lon="4.795679950636972"><ele>110.28571428571429</ele><time>2026-04-22T16:02:43.003Z</time></trkpt><trkpt lat="44.81232400369226" lon="4.795771123015733"><ele>109.0</ele><time>2026-04-22T16:02:44.003Z</time></trkpt><trkpt lat="44.81231693225499" lon="4.795860179283722"><ele>109.0</ele><time>2026-04-22T16:02:45.003Z</time></trkpt><trkpt lat="44.81235021111146" lon="4.795950273454966"><ele>109.0</ele><time>2026-04-22T16:02:46.003Z</time></trkpt><trkpt lat="44.81240297037076" lon="4.796013220296692"><ele>109.0</ele><time>2026-04-22T16:02:47.003Z</time></trkpt><trkpt lat="44.812469864487035" lon="4.796062011636349"><ele>109.0</ele><time>2026-04-22T16:02:48.003Z</time></trkpt><trkpt lat="44.812568162074925" lon="4.796151456934701"><ele>109.0</ele><time>2026-04-22T16:02:50.003Z</time></trkpt><trkpt lat="44.81265772131532" lon="4.79625983232229"><ele>109.80000000000001</ele><time>2026-04-22T16:02:52.003Z</time></trkpt><trkpt lat="44.812737187197506" lon="4.796353003130608"><ele>110.60000000000001</ele><time>2026-04-22T16:02:54.003Z</time></trkpt><trkpt lat="44.81280907319272" lon="4.796450554030506"><ele>111.4</ele><time>2026-04-22T16:02:56.003Z</time></trkpt><trkpt lat="44.812879389930806" lon="4.796542115516974"><ele>112.2</ele><time>2026-04-22T16:02:58.003Z</time></trkpt><trkpt lat="44.81295680241167" lon="4.796634287942436"><ele>113.0</ele><time>2026-04-22T16:03:00.003Z</time></trkpt><trkpt lat="44.813040872491015" lon="4.796717681476237"><ele>113.0</ele><time>2026-04-22T16:03:02.003Z</time></trkpt><trkpt lat="44.81312919652513" lon="4.7968144620637885"><ele>113.00000000000001</ele><time>2026-04-22T16:03:04.003Z</time></trkpt><trkpt lat="44.813223408834716" lon="4.796887829470684"><ele>113.00000000000001</ele><time>2026-04-22T16:03:06.003Z</time></trkpt><trkpt lat="44.81331156991489" lon="4.796961861092622"><ele>113.0</ele><time>2026-04-22T16:03:08.003Z</time></trkpt><trkpt lat="44.813403803050235" lon="4.797022453608968"><ele>113.0</ele><time>2026-04-22T16:03:10.003Z</time></trkpt><trkpt lat="44.813498185890595" lon="4.797091629502959"><ele>112.0</ele><time>2026-04-22T16:03:12.003Z</time></trkpt><trkpt lat="44.81358661531987" lon="4.797183776077769"><ele>111.00000000000001</ele><time>2026-04-22T16:03:14.003Z</time></trkpt><trkpt lat="44.813635510104824" lon="4.797242065592664"><ele>110.00000000000001</ele><time>2026-04-22T16:03:15.003Z</time></trkpt><trkpt lat="44.81372150722058" lon="4.797344964499264"><ele>109.0</ele><time>2026-04-22T16:03:17.003Z</time></trkpt><trkpt lat="44.81378990696323" lon="4.797439926105397"><ele>108.0</ele><time>2026-04-22T16:03:19.004Z</time></trkpt><trkpt lat="44.81386085478402" lon="4.797563422981724"><ele>106.71428571428571</ele><time>2026-04-22T16:03:21.004Z</time></trkpt><trkpt lat="44.813843925056034" lon="4.797733105108356"><ele>105.42857142857142</ele><time>2026-04-22T16:03:23.003Z</time></trkpt><trkpt lat="44.81381597885545" lon="4.797813647496469"><ele>104.14285714285714</ele><time>2026-04-22T16:03:24.003Z</time></trkpt><trkpt lat="44.81379327680102" lon="4.797896821809098"><ele>102.85714285714286</ele><time>2026-04-22T16:03:25.004Z</time></trkpt><trkpt lat="44.81376158425939" lon="4.797975102982901"><ele>101.57142857142857</ele><time>2026-04-22T16:03:26.004Z</time></trkpt><trkpt lat="44.81370600013375" lon="4.798029043027173"><ele>100.28571428571429</ele><time>2026-04-22T16:03:27.004Z</time></trkpt><trkpt lat="44.813642193724526" lon="4.798049606011873"><ele>99.0</ele><time>2026-04-22T16:03:28.004Z</time></trkpt><trkpt lat="44.8135559688158" lon="4.79810579290104"><ele>99.0</ele><time>2026-04-22T16:03:30.004Z</time></trkpt><trkpt lat="44.8135040079824" lon="4.79822239519995"><ele>99.0</ele><time>2026-04-22T16:03:32.004Z</time></trkpt><trkpt lat="44.813470363189744" lon="4.798306429017986"><ele>99.0</ele><time>2026-04-22T16:03:33.004Z</time></trkpt><trkpt lat="44.81342829137698" lon="4.798400410573919"><ele>99.0</ele><time>2026-04-22T16:03:35.004Z</time></trkpt><trkpt lat="44.813473844772076" lon="4.798489760431077"><ele>99.0</ele><time>2026-04-22T16:03:38.004Z</time></trkpt><trkpt lat="44.81354982045831" lon="4.798519860356293"><ele>99.0</ele><time>2026-04-22T16:03:40.004Z</time></trkpt><trkpt lat="44.8136617958043" lon="4.798585270152118"><ele>98.6</ele><time>2026-04-22T16:03:42.004Z</time></trkpt><trkpt lat="44.813774783935564" lon="4.798635920960025"><ele>98.2</ele><time>2026-04-22T16:03:44.004Z</time></trkpt><trkpt lat="44.81388458310214" lon="4.798671362874463"><ele>97.8</ele><time>2026-04-22T16:03:46.004Z</time></trkpt><trkpt lat="44.81398179988144" lon="4.798705418998819"><ele>97.39999999999999</ele><time>2026-04-22T16:03:48.004Z</time></trkpt><trkpt lat="44.81409213640035" lon="4.798729399388517"><ele>97.0</ele><time>2026-04-22T16:03:50.004Z</time></trkpt><trkpt lat="44.81420257476113" lon="4.798739080939453"><ele>97.0</ele><time>2026-04-22T16:03:52.004Z</time></trkpt><trkpt lat="44.81431345192011" lon="4.798780574805274"><ele>97.0</ele><time>2026-04-22T16:03:54.004Z</time></trkpt><trkpt lat="44.81442055423078" lon="4.798804992633629"><ele>97.0</ele><time>2026-04-22T16:03:56.004Z</time></trkpt><trkpt lat="44.814525439388724" lon="4.798822839817505"><ele>97.0</ele><time>2026-04-22T16:03:58.004Z</time></trkpt><trkpt lat="44.81459130691761" lon="4.798840362988291"><ele>97.0</ele><time>2026-04-22T16:03:59.004Z</time></trkpt><trkpt lat="44.81471102969609" lon="4.798888778945369"><ele>97.39999999999999</ele><time>2026-04-22T16:04:01.004Z</time></trkpt><trkpt lat="44.81477878124749" lon="4.798912254198792"><ele>97.8</ele><time>2026-04-22T16:04:02.004Z</time></trkpt><trkpt lat="44.814894546464814" lon="4.798944631745179"><ele>98.2</ele><time>2026-04-22T16:04:04.004Z</time></trkpt><trkpt lat="44.815006397974564" lon="4.798950685087881"><ele>98.6</ele><time>2026-04-22T16:04:06.004Z</time></trkpt><trkpt lat="44.81512844451462" lon="4.798965977813402"><ele>99.0</ele><time>2026-04-22T16:04:08.004Z</time></trkpt><trkpt lat="44.815247023940906" lon="4.798962143871832"><ele>98.0</ele><time>2026-04-22T16:04:10.004Z</time></trkpt><trkpt lat="44.81535167887767" lon="4.798951605154107"><ele>97.0</ele><time>2026-04-22T16:04:12.004Z</time></trkpt><trkpt lat="44.815454690645446" lon="4.798929510850984"><ele>96.0</ele><time>2026-04-22T16:04:14.004Z</time></trkpt><trkpt lat="44.81549782634008" lon="4.7990208808576975"><ele>95.0</ele><time>2026-04-22T16:04:18.004Z</time></trkpt><trkpt lat="44.815441538417126" lon="4.7991412610693445"><ele>94.0</ele><time>2026-04-22T16:04:20.004Z</time></trkpt><trkpt lat="44.81543876589472" lon="4.799275859382508"><ele>94.0</ele><time>2026-04-22T16:04:22.004Z</time></trkpt><trkpt lat="44.815493660810326" lon="4.7993832540030485"><ele>94.0</ele><time>2026-04-22T16:04:24.004Z</time></trkpt><trkpt lat="44.815557324637794" lon="4.799471869166076"><ele>94.0</ele><time>2026-04-22T16:04:26.004Z</time></trkpt><trkpt lat="44.81562262402278" lon="4.799548388308745"><ele>94.0</ele><time>2026-04-22T16:04:28.004Z</time></trkpt><trkpt lat="44.81567274484273" lon="4.79967462241017"><ele>94.0</ele><time>2026-04-22T16:04:30.004Z</time></trkpt><trkpt lat="44.815734005254114" lon="4.799761539519379"><ele>94.0</ele><time>2026-04-22T16:04:32.004Z</time></trkpt><trkpt lat="44.81580091435857" lon="4.799846063970769"><ele>94.0</ele><time>2026-04-22T16:04:34.004Z</time></trkpt><trkpt lat="44.815858700535074" lon="4.799960575799563"><ele>94.0</ele><time>2026-04-22T16:04:36.004Z</time></trkpt><trkpt lat="44.81592797977704" lon="4.800072727751635"><ele>94.0</ele><time>2026-04-22T16:04:38.004Z</time></trkpt><trkpt lat="44.81599423443942" lon="4.800188763784194"><ele>94.0</ele><time>2026-04-22T16:04:40.004Z</time></trkpt><trkpt lat="44.81605422166642" lon="4.800296595842029"><ele>94.0</ele><time>2026-04-22T16:04:42.004Z</time></trkpt><trkpt lat="44.81611213218432" lon="4.800405622516206"><ele>94.0</ele><time>2026-04-22T16:04:44.004Z</time></trkpt><trkpt lat="44.8161734107044" lon="4.8004966729140595"><ele>94.0</ele><time>2026-04-22T16:04:46.004Z</time></trkpt><trkpt lat="44.81622430713859" lon="4.800617994603499"><ele>94.0</ele><time>2026-04-22T16:04:48.004Z</time></trkpt><trkpt lat="44.81627560924578" lon="4.8007093840152475"><ele>94.0</ele><time>2026-04-22T16:04:50.004Z</time></trkpt><trkpt lat="44.81634496759893" lon="4.800826649815747"><ele>94.0</ele><time>2026-04-22T16:04:52.004Z</time></trkpt><trkpt lat="44.816424133027496" lon="4.800939951783774"><ele>94.0</ele><time>2026-04-22T16:04:54.004Z</time></trkpt><trkpt lat="44.816481626339026" lon="4.801058587109046"><ele>94.0</ele><time>2026-04-22T16:04:56.004Z</time></trkpt><trkpt lat="44.816556058878255" lon="4.801160551367152"><ele>94.0</ele><time>2026-04-22T16:04:58.004Z</time></trkpt><trkpt lat="44.81662277463042" lon="4.801249382986377"><ele>94.0</ele><time>2026-04-22T16:05:00.004Z</time></trkpt><trkpt lat="44.81668860264857" lon="4.801333427330355"><ele>94.0</ele><time>2026-04-22T16:05:02.004Z</time></trkpt><trkpt lat="44.81676583808424" lon="4.801409309956839"><ele>94.0</ele><time>2026-04-22T16:05:04.004Z</time></trkpt><trkpt lat="44.81684741078911" lon="4.801445519970662"><ele>94.0</ele><time>2026-04-22T16:05:06.004Z</time></trkpt><trkpt lat="44.81694596948214" lon="4.8014661609394835"><ele>94.0</ele><time>2026-04-22T16:05:08.004Z</time></trkpt><trkpt lat="44.817050653077565" lon="4.801474185460824"><ele>94.0</ele><time>2026-04-22T16:05:10.004Z</time></trkpt><trkpt lat="44.81714710686492" lon="4.801465471749657"><ele>94.0</ele><time>2026-04-22T16:05:12.004Z</time></trkpt><trkpt lat="44.8172500557276" lon="4.801469384359074"><ele>94.0</ele><time>2026-04-22T16:05:14.004Z</time></trkpt><trkpt lat="44.817350951199515" lon="4.801460590396713"><ele>94.0</ele><time>2026-04-22T16:05:16.004Z</time></trkpt><trkpt lat="44.81744483462667" lon="4.8014651676786855"><ele>94.0</ele><time>2026-04-22T16:05:18.005Z</time></trkpt><trkpt lat="44.817561972855465" lon="4.801451988794138"><ele>94.0</ele><time>2026-04-22T16:05:20.004Z</time></trkpt><trkpt lat="44.81766165340025" lon="4.801441383714014"><ele>94.0</ele><time>2026-04-22T16:05:22.004Z</time></trkpt><trkpt lat="44.81775933395053" lon="4.801435503554373"><ele>94.0</ele><time>2026-04-22T16:05:24.004Z</time></trkpt><trkpt lat="44.81786105103498" lon="4.8014203939742455"><ele>94.0</ele><time>2026-04-22T16:05:26.004Z</time></trkpt><trkpt lat="44.817966129649726" lon="4.801419738578169"><ele>94.0</ele><time>2026-04-22T16:05:28.004Z</time></trkpt><trkpt lat="44.818078217499334" lon="4.8014123211862865"><ele>94.0</ele><time>2026-04-22T16:05:30.004Z</time></trkpt><trkpt lat="44.818191211990865" lon="4.801392972095395"><ele>94.0</ele><time>2026-04-22T16:05:32.004Z</time></trkpt><trkpt lat="44.81830126846934" lon="4.80137768843311"><ele>94.0</ele><time>2026-04-22T16:05:34.004Z</time></trkpt><trkpt lat="44.81840934388103" lon="4.801366768472129"><ele>94.0</ele><time>2026-04-22T16:05:36.004Z</time></trkpt><trkpt lat="44.8185136809956" lon="4.8013505959759515"><ele>94.0</ele><time>2026-04-22T16:05:38.004Z</time></trkpt><trkpt lat="44.818625773913986" lon="4.8013294273576985"><ele>94.0</ele><time>2026-04-22T16:05:40.004Z</time></trkpt><trkpt lat="44.81873147783359" lon="4.801311816445214"><ele>94.4</ele><time>2026-04-22T16:05:42.004Z</time></trkpt><trkpt lat="44.818842369851914" lon="4.80130026544455"><ele>94.80000000000001</ele><time>2026-04-22T16:05:44.004Z</time></trkpt><trkpt lat="44.818955646845055" lon="4.801289180622417"><ele>95.19999999999999</ele><time>2026-04-22T16:05:46.004Z</time></trkpt><trkpt lat="44.81906722350744" lon="4.801269599791398"><ele>95.6</ele><time>2026-04-22T16:05:48.004Z</time></trkpt><trkpt lat="44.81917807200648" lon="4.801251064005509"><ele>96.0</ele><time>2026-04-22T16:05:50.004Z</time></trkpt><trkpt lat="44.819283894640975" lon="4.8012291364172786"><ele>95.75</ele><time>2026-04-22T16:05:52.004Z</time></trkpt><trkpt lat="44.819392918982075" lon="4.801206395645905"><ele>95.5</ele><time>2026-04-22T16:05:54.004Z</time></trkpt><trkpt lat="44.81950992378955" lon="4.801184707478855"><ele>95.25</ele><time>2026-04-22T16:05:56.004Z</time></trkpt><trkpt lat="44.81962431869619" lon="4.801183390668939"><ele>95.0</ele><time>2026-04-22T16:05:58.004Z</time></trkpt><trkpt lat="44.8197331469579" lon="4.801180774179447"><ele>95.0</ele><time>2026-04-22T16:06:00.004Z</time></trkpt><trkpt lat="44.81984891145339" lon="4.8011699347287875"><ele>95.0</ele><time>2026-04-22T16:06:02.004Z</time></trkpt><trkpt lat="44.81995966145172" lon="4.801162609960173"><ele>95.0</ele><time>2026-04-22T16:06:04.004Z</time></trkpt><trkpt lat="44.820068909187796" lon="4.801152953209901"><ele>95.0</ele><time>2026-04-22T16:06:06.004Z</time></trkpt><trkpt lat="44.820176603242714" lon="4.801132824344104"><ele>95.0</ele><time>2026-04-22T16:06:08.004Z</time></trkpt><trkpt lat="44.820291943243106" lon="4.80111810592526"><ele>94.4</ele><time>2026-04-22T16:06:10.004Z</time></trkpt><trkpt lat="44.82039838634156" lon="4.801095208447425"><ele>93.8</ele><time>2026-04-22T16:06:12.004Z</time></trkpt><trkpt lat="44.82050742997429" lon="4.801082967800471"><ele>93.19999999999999</ele><time>2026-04-22T16:06:14.004Z</time></trkpt><trkpt lat="44.82060771655434" lon="4.801061739315859"><ele>92.6</ele><time>2026-04-22T16:06:16.004Z</time></trkpt><trkpt lat="44.82071632233787" lon="4.80104450287008"><ele>92.0</ele><time>2026-04-22T16:06:18.004Z</time></trkpt><trkpt lat="44.82083325470957" lon="4.801017245009079"><ele>92.39999999999999</ele><time>2026-04-22T16:06:20.004Z</time></trkpt><trkpt lat="44.8209470219546" lon="4.800992975414027"><ele>92.8</ele><time>2026-04-22T16:06:22.004Z</time></trkpt><trkpt lat="44.82105457730111" lon="4.800977180510232"><ele>93.2</ele><time>2026-04-22T16:06:24.004Z</time></trkpt><trkpt lat="44.821152508249135" lon="4.800940294593133"><ele>93.6</ele><time>2026-04-22T16:06:26.004Z</time></trkpt><trkpt lat="44.82124235802211" lon="4.800898622423889"><ele>94.0</ele><time>2026-04-22T16:06:28.004Z</time></trkpt><trkpt lat="44.82134826041531" lon="4.8008495954982235"><ele>94.0</ele><time>2026-04-22T16:06:30.004Z</time></trkpt><trkpt lat="44.82144196287445" lon="4.800805212891184"><ele>94.0</ele><time>2026-04-22T16:06:32.004Z</time></trkpt><trkpt lat="44.82154208578605" lon="4.800732123573208"><ele>94.0</ele><time>2026-04-22T16:06:34.004Z</time></trkpt><trkpt lat="44.82165148021853" lon="4.800683435881892"><ele>94.0</ele><time>2026-04-22T16:06:36.004Z</time></trkpt><trkpt lat="44.8217451475546" lon="4.8006247716334505"><ele>94.0</ele><time>2026-04-22T16:06:38.004Z</time></trkpt><trkpt lat="44.82183602134304" lon="4.800550617727008"><ele>94.6</ele><time>2026-04-22T16:06:40.004Z</time></trkpt><trkpt lat="44.821913973044374" lon="4.800456986570621"><ele>95.2</ele><time>2026-04-22T16:06:42.004Z</time></trkpt><trkpt lat="44.82198116286946" lon="4.800335783397186"><ele>95.8</ele><time>2026-04-22T16:06:44.004Z</time></trkpt><trkpt lat="44.822030877835566" lon="4.800206461608534"><ele>96.39999999999999</ele><time>2026-04-22T16:06:46.004Z</time></trkpt><trkpt lat="44.82208267760762" lon="4.800084016638368"><ele>97.0</ele><time>2026-04-22T16:06:48.004Z</time></trkpt><trkpt lat="44.822167260006246" lon="4.7999897763044865"><ele>97.19999999999999</ele><time>2026-04-22T16:06:50.004Z</time></trkpt><trkpt lat="44.822267870563294" lon="4.799912997666202"><ele>97.4</ele><time>2026-04-22T16:06:52.004Z</time></trkpt><trkpt lat="44.82236898108402" lon="4.799854410488025"><ele>97.6</ele><time>2026-04-22T16:06:54.004Z</time></trkpt><trkpt lat="44.82246686054492" lon="4.799784247459224"><ele>97.80000000000001</ele><time>2026-04-22T16:06:56.004Z</time></trkpt><trkpt lat="44.822569436994925" lon="4.799725002582901"><ele>98.0</ele><time>2026-04-22T16:06:58.004Z</time></trkpt><trkpt lat="44.82267701726714" lon="4.799674231122062"><ele>98.0</ele><time>2026-04-22T16:07:00.004Z</time></trkpt><trkpt lat="44.822787452215714" lon="4.799630970267121"><ele>98.0</ele><time>2026-04-22T16:07:02.004Z</time></trkpt><trkpt lat="44.822890862178056" lon="4.799582084223377"><ele>98.0</ele><time>2026-04-22T16:07:04.004Z</time></trkpt><trkpt lat="44.82297545813186" lon="4.799510702462289"><ele>98.0</ele><time>2026-04-22T16:07:06.004Z</time></trkpt><trkpt lat="44.823050031483156" lon="4.7994362085361315"><ele>98.0</ele><time>2026-04-22T16:07:08.004Z</time></trkpt><trkpt lat="44.823115048042574" lon="4.799371439833328"><ele>97.80000000000001</ele><time>2026-04-22T16:07:10.004Z</time></trkpt><trkpt lat="44.823181252634214" lon="4.799299029430481"><ele>97.6</ele><time>2026-04-22T16:07:12.004Z</time></trkpt><trkpt lat="44.82326488235391" lon="4.799203425819506"><ele>97.4</ele><time>2026-04-22T16:07:14.004Z</time></trkpt><trkpt lat="44.82335032543843" lon="4.799094802560348"><ele>97.19999999999999</ele><time>2026-04-22T16:07:16.004Z</time></trkpt><trkpt lat="44.82342118739254" lon="4.798970914441537"><ele>97.0</ele><time>2026-04-22T16:07:18.004Z</time></trkpt><trkpt lat="44.82348027133192" lon="4.798853813897888"><ele>97.16666666666667</ele><time>2026-04-22T16:07:20.004Z</time></trkpt><trkpt lat="44.82353363996136" lon="4.798755623822379"><ele>97.33333333333334</ele><time>2026-04-22T16:07:22.004Z</time></trkpt><trkpt lat="44.82358003632967" lon="4.7986672737506"><ele>97.5</ele><time>2026-04-22T16:07:24.004Z</time></trkpt><trkpt lat="44.82361569834642" lon="4.798568071513518"><ele>97.66666666666666</ele><time>2026-04-22T16:07:26.004Z</time></trkpt><trkpt lat="44.823677165161364" lon="4.798468969237947"><ele>97.83333333333333</ele><time>2026-04-22T16:07:28.004Z</time></trkpt><trkpt lat="44.82371732833729" lon="4.7983424349303965"><ele>98.0</ele><time>2026-04-22T16:07:30.004Z</time></trkpt><trkpt lat="44.823752245129626" lon="4.7982096661640155"><ele>97.99999999999999</ele><time>2026-04-22T16:07:32.004Z</time></trkpt><trkpt lat="44.82380418293429" lon="4.7981063346641895"><ele>98.0</ele><time>2026-04-22T16:07:34.004Z</time></trkpt><trkpt lat="44.82387082366928" lon="4.798141804583123"><ele>98.0</ele><time>2026-04-22T16:07:37.004Z</time></trkpt><trkpt lat="44.823916506414534" lon="4.798224724326806"><ele>98.0</ele><time>2026-04-22T16:07:39.004Z</time></trkpt><trkpt lat="44.82396740885613" lon="4.798333459808584"><ele>97.99999999999999</ele><time>2026-04-22T16:07:41.004Z</time></trkpt><trkpt lat="44.82402595867761" lon="4.7984420451275085"><ele>98.0</ele><time>2026-04-22T16:07:43.004Z</time></trkpt><trkpt lat="44.82409406507451" lon="4.798561256059959"><ele>97.4</ele><time>2026-04-22T16:07:45.004Z</time></trkpt><trkpt lat="44.82415158667058" lon="4.798676042580659"><ele>96.80000000000001</ele><time>2026-04-22T16:07:47.004Z</time></trkpt><trkpt lat="44.82420991296375" lon="4.798800299954561"><ele>96.2</ele><time>2026-04-22T16:07:49.004Z</time></trkpt><trkpt lat="44.82427833392643" lon="4.798926047803293"><ele>95.6</ele><time>2026-04-22T16:07:51.004Z</time></trkpt><trkpt lat="44.82434444226965" lon="4.7990532375892565"><ele>95.0</ele><time>2026-04-22T16:07:53.003Z</time></trkpt><trkpt lat="44.82441422421217" lon="4.799183333542607"><ele>95.0</ele><time>2026-04-22T16:07:55.003Z</time></trkpt><trkpt lat="44.82447699296372" lon="4.799315228292903"><ele>95.0</ele><time>2026-04-22T16:07:57.003Z</time></trkpt><trkpt lat="44.8245475365685" lon="4.799438772508608"><ele>95.0</ele><time>2026-04-22T16:07:59.003Z</time></trkpt><trkpt lat="44.82461108507783" lon="4.799562195950845"><ele>95.0</ele><time>2026-04-22T16:08:01.003Z</time></trkpt><trkpt lat="44.82467987779549" lon="4.799690355694596"><ele>95.0</ele><time>2026-04-22T16:08:03.003Z</time></trkpt><trkpt lat="44.82473399483107" lon="4.799796138808113"><ele>95.2</ele><time>2026-04-22T16:08:05.003Z</time></trkpt><trkpt lat="44.82477967348449" lon="4.799889348452089"><ele>95.4</ele><time>2026-04-22T16:08:07.003Z</time></trkpt><trkpt lat="44.82475871905767" lon="4.799992294985266"><ele>95.6</ele><time>2026-04-22T16:08:10.002Z</time></trkpt><trkpt lat="44.82465768842509" lon="4.800019324114232"><ele>95.8</ele><time>2026-04-22T16:08:12.002Z</time></trkpt><trkpt lat="44.824555584475995" lon="4.800090306144842"><ele>96.0</ele><time>2026-04-22T16:08:14.002Z</time></trkpt><trkpt lat="44.824470144134416" lon="4.800190657407621"><ele>96.4</ele><time>2026-04-22T16:08:16.002Z</time></trkpt><trkpt lat="44.82437350769215" lon="4.800272153691408"><ele>96.8</ele><time>2026-04-22T16:08:18.002Z</time></trkpt><trkpt lat="44.824258725272244" lon="4.800354207272281"><ele>97.2</ele><time>2026-04-22T16:08:20.002Z</time></trkpt><trkpt lat="44.824205923462955" lon="4.8004074586523116"><ele>97.60000000000001</ele><time>2026-04-22T16:08:21.002Z</time></trkpt><trkpt lat="44.824148493832034" lon="4.800451390582285"><ele>98.0</ele><time>2026-04-22T16:08:22.002Z</time></trkpt><trkpt lat="44.824034813655686" lon="4.800524289833957"><ele>97.99999999999999</ele><time>2026-04-22T16:08:24.002Z</time></trkpt><trkpt lat="44.82397721124896" lon="4.800560741839326"><ele>98.0</ele><time>2026-04-22T16:08:25.002Z</time></trkpt><trkpt lat="44.823926098410475" lon="4.800613412561261"><ele>98.0</ele><time>2026-04-22T16:08:26.002Z</time></trkpt><trkpt lat="44.82383218345525" lon="4.800681785173474"><ele>98.0</ele><time>2026-04-22T16:08:28.002Z</time></trkpt><trkpt lat="44.82374093386709" lon="4.800754053613052"><ele>97.99999999999999</ele><time>2026-04-22T16:08:30.002Z</time></trkpt><trkpt lat="44.823648620261665" lon="4.800808346526152"><ele>98.0</ele><time>2026-04-22T16:08:32.002Z</time></trkpt><trkpt lat="44.823537817582654" lon="4.800844250055558"><ele>97.99999999999999</ele><time>2026-04-22T16:08:34.002Z</time></trkpt><trkpt lat="44.82343602285976" lon="4.800861845910751"><ele>98.0</ele><time>2026-04-22T16:08:36.002Z</time></trkpt><trkpt lat="44.823375246087664" lon="4.800923085389597"><ele>98.0</ele><time>2026-04-22T16:08:39.002Z</time></trkpt><trkpt lat="44.82344371124625" lon="4.801002015999748"><ele>98.0</ele><time>2026-04-22T16:08:42.002Z</time></trkpt><trkpt lat="44.82354632198016" lon="4.8009564611625075"><ele>97.99999999999999</ele><time>2026-04-22T16:08:44.002Z</time></trkpt><trkpt lat="44.82361302993211" lon="4.80094179176311"><ele>98.0</ele><time>2026-04-22T16:08:46.002Z</time></trkpt><trkpt lat="44.8237251275093" lon="4.800941630923234"><ele>98.0</ele><time>2026-04-22T16:09:19.002Z</time></trkpt><trkpt lat="44.823804583429585" lon="4.800911324651847"><ele>98.0</ele><time>2026-04-22T16:09:21.002Z</time></trkpt><trkpt lat="44.823950540901954" lon="4.800901321819343"><ele>98.0</ele><time>2026-04-22T16:09:24.002Z</time></trkpt><trkpt lat="44.82407039419511" lon="4.800941447717669"><ele>98.0</ele><time>2026-04-22T16:09:26.002Z</time></trkpt><trkpt lat="44.82417961641509" lon="4.800993807868425"><ele>97.75</ele><time>2026-04-22T16:09:28.002Z</time></trkpt><trkpt lat="44.82427459486777" lon="4.801099011972036"><ele>97.5</ele><time>2026-04-22T16:09:30.003Z</time></trkpt><trkpt lat="44.824360875826365" lon="4.8012092864183"><ele>97.25</ele><time>2026-04-22T16:09:32.002Z</time></trkpt><trkpt lat="44.824453849279585" lon="4.801317062761481"><ele>97.0</ele><time>2026-04-22T16:09:34.002Z</time></trkpt><trkpt lat="44.82455029561373" lon="4.801414655312968"><ele>97.0</ele><time>2026-04-22T16:09:36.002Z</time></trkpt><trkpt lat="44.82464696466867" lon="4.801507546646618"><ele>97.0</ele><time>2026-04-22T16:09:38.003Z</time></trkpt><trkpt lat="44.82474242385904" lon="4.801608070066284"><ele>97.0</ele><time>2026-04-22T16:09:40.002Z</time></trkpt><trkpt lat="44.82483670963577" lon="4.801713962414339"><ele>97.0</ele><time>2026-04-22T16:09:42.002Z</time></trkpt><trkpt lat="44.82492476943519" lon="4.80181454112913"><ele>97.0</ele><time>2026-04-22T16:09:44.002Z</time></trkpt><trkpt lat="44.8250149559369" lon="4.801916977776943"><ele>97.0</ele><time>2026-04-22T16:09:46.002Z</time></trkpt><trkpt lat="44.82509675494507" lon="4.802010204166648"><ele>97.0</ele><time>2026-04-22T16:09:48.002Z</time></trkpt><trkpt lat="44.825183695664194" lon="4.802127895605539"><ele>97.0</ele><time>2026-04-22T16:09:50.002Z</time></trkpt><trkpt lat="44.825266736054616" lon="4.802243761532915"><ele>97.25</ele><time>2026-04-22T16:09:52.002Z</time></trkpt><trkpt lat="44.82535078223116" lon="4.802377844389583"><ele>97.5</ele><time>2026-04-22T16:09:54.002Z</time></trkpt><trkpt lat="44.82540406471938" lon="4.80252468040148"><ele>97.75</ele><time>2026-04-22T16:09:56.002Z</time></trkpt><trkpt lat="44.82544650231982" lon="4.802670629238923"><ele>98.0</ele><time>2026-04-22T16:09:58.002Z</time></trkpt><trkpt lat="44.82551248115795" lon="4.8027903219778345"><ele>98.2</ele><time>2026-04-22T16:10:00.002Z</time></trkpt><trkpt lat="44.825575573245686" lon="4.802921739226123"><ele>98.4</ele><time>2026-04-22T16:10:02.002Z</time></trkpt><trkpt lat="44.825627669515974" lon="4.803057772134176"><ele>98.60000000000001</ele><time>2026-04-22T16:10:04.002Z</time></trkpt><trkpt lat="44.82567719490639" lon="4.80314822590682"><ele>98.80000000000001</ele><time>2026-04-22T16:10:06.002Z</time></trkpt><trkpt lat="44.82574119006182" lon="4.803152712701118"><ele>99.0</ele><time>2026-04-22T16:10:09.002Z</time></trkpt><trkpt lat="44.82581529209565" lon="4.803066922814458"><ele>99.0</ele><time>2026-04-22T16:10:11.002Z</time></trkpt><trkpt lat="44.825896374421184" lon="4.802970695994793"><ele>99.0</ele><time>2026-04-22T16:10:13.002Z</time></trkpt><trkpt lat="44.82599228588185" lon="4.802899521450746"><ele>99.0</ele><time>2026-04-22T16:10:15.002Z</time></trkpt><trkpt lat="44.826069495285324" lon="4.802839932388859"><ele>99.0</ele><time>2026-04-22T16:10:17.002Z</time></trkpt><trkpt lat="44.82615817077059" lon="4.802851907609245"><ele>99.0</ele><time>2026-04-22T16:10:19.002Z</time></trkpt><trkpt lat="44.826248564930964" lon="4.802875854257256"><ele>100.0</ele><time>2026-04-22T16:10:22.002Z</time></trkpt><trkpt lat="44.82630038860049" lon="4.802952532193032"><ele>101.0</ele><time>2026-04-22T16:10:24.002Z</time></trkpt><trkpt lat="44.826364517078815" lon="4.803040731633372"><ele>102.0</ele><time>2026-04-22T16:10:26.002Z</time></trkpt><trkpt lat="44.82642790885278" lon="4.8031406800437475"><ele>103.0</ele><time>2026-04-22T16:10:28.002Z</time></trkpt><trkpt lat="44.82649601670348" lon="4.803260555697996"><ele>104.0</ele><time>2026-04-22T16:10:30.002Z</time></trkpt><trkpt lat="44.82656468304403" lon="4.803377698133754"><ele>104.0</ele><time>2026-04-22T16:10:32.002Z</time></trkpt><trkpt lat="44.82663686291716" lon="4.803481004049031"><ele>104.0</ele><time>2026-04-22T16:10:34.002Z</time></trkpt><trkpt lat="44.82672261379941" lon="4.803575202416111"><ele>104.0</ele><time>2026-04-22T16:10:36.002Z</time></trkpt><trkpt lat="44.82681106635658" lon="4.803675040656186"><ele>104.0</ele><time>2026-04-22T16:10:38.002Z</time></trkpt><trkpt lat="44.826897342007435" lon="4.803780369069643"><ele>104.0</ele><time>2026-04-22T16:10:40.002Z</time></trkpt><trkpt lat="44.82698300661481" lon="4.803879414869212"><ele>103.2</ele><time>2026-04-22T16:10:42.002Z</time></trkpt><trkpt lat="44.82708356944772" lon="4.803964019935571"><ele>102.4</ele><time>2026-04-22T16:10:44.002Z</time></trkpt><trkpt lat="44.82716955462657" lon="4.804076459557446"><ele>101.6</ele><time>2026-04-22T16:10:46.002Z</time></trkpt><trkpt lat="44.82726398261782" lon="4.804184759442038"><ele>100.8</ele><time>2026-04-22T16:10:48.002Z</time></trkpt><trkpt lat="44.82731044161459" lon="4.804246406959224"><ele>100.0</ele><time>2026-04-22T16:10:49.002Z</time></trkpt><trkpt lat="44.82740854275069" lon="4.804357905427376"><ele>100.0</ele><time>2026-04-22T16:10:51.002Z</time></trkpt><trkpt lat="44.82745675140249" lon="4.804416509536908"><ele>100.0</ele><time>2026-04-22T16:10:52.002Z</time></trkpt><trkpt lat="44.82755554321557" lon="4.804529948466548"><ele>100.0</ele><time>2026-04-22T16:10:54.002Z</time></trkpt><trkpt lat="44.827656094171914" lon="4.804619673307962"><ele>100.0</ele><time>2026-04-22T16:10:56.002Z</time></trkpt><trkpt lat="44.8277617232389" lon="4.804715033818542"><ele>100.0</ele><time>2026-04-22T16:10:58.002Z</time></trkpt><trkpt lat="44.82781886745873" lon="4.804760100078211"><ele>102.2</ele><time>2026-04-22T16:10:59.002Z</time></trkpt><trkpt lat="44.827923481326295" lon="4.804859115339906"><ele>104.4</ele><time>2026-04-22T16:11:01.002Z</time></trkpt><trkpt lat="44.828033094056615" lon="4.804950114036154"><ele>106.6</ele><time>2026-04-22T16:11:03.002Z</time></trkpt><trkpt lat="44.828093408287785" lon="4.805008504654951"><ele>108.8</ele><time>2026-04-22T16:11:04.002Z</time></trkpt><trkpt lat="44.82818795968975" lon="4.805088667308888"><ele>111.0</ele><time>2026-04-22T16:11:06.002Z</time></trkpt><trkpt lat="44.82824717976402" lon="4.8051327947167675"><ele>110.33333333333333</ele><time>2026-04-22T16:11:07.002Z</time></trkpt><trkpt lat="44.82830943242595" lon="4.8051955909503725"><ele>109.66666666666666</ele><time>2026-04-22T16:11:08.002Z</time></trkpt><trkpt lat="44.82837187241564" lon="4.805249631112852"><ele>109.0</ele><time>2026-04-22T16:11:09.002Z</time></trkpt><trkpt lat="44.82842977236451" lon="4.805302898847437"><ele>108.33333333333333</ele><time>2026-04-22T16:11:10.002Z</time></trkpt><trkpt lat="44.82848605168438" lon="4.805348210674406"><ele>107.66666666666666</ele><time>2026-04-22T16:11:11.002Z</time></trkpt><trkpt lat="44.82853929777317" lon="4.80540198947382"><ele>107.0</ele><time>2026-04-22T16:11:12.002Z</time></trkpt><trkpt lat="44.82864916688576" lon="4.805493258312201"><ele>106.99999999999999</ele><time>2026-04-22T16:11:14.002Z</time></trkpt><trkpt lat="44.828703108764" lon="4.805545542637636"><ele>107.0</ele><time>2026-04-22T16:11:15.002Z</time></trkpt><trkpt lat="44.8287714459855" lon="4.805592660106771"><ele>107.0</ele><time>2026-04-22T16:11:16.002Z</time></trkpt><trkpt lat="44.82883792520788" lon="4.8056392680951685"><ele>107.0</ele><time>2026-04-22T16:11:17.002Z</time></trkpt><trkpt lat="44.82895617083267" lon="4.805725424956607"><ele>106.99999999999999</ele><time>2026-04-22T16:11:19.002Z</time></trkpt><trkpt lat="44.82902234973233" lon="4.8057675754392495"><ele>107.0</ele><time>2026-04-22T16:11:20.002Z</time></trkpt><trkpt lat="44.829083216598704" lon="4.805806892319945"><ele>107.00000000000001</ele><time>2026-04-22T16:11:21.002Z</time></trkpt><trkpt lat="44.829144705402015" lon="4.805848130664757"><ele>107.0</ele><time>2026-04-22T16:11:22.002Z</time></trkpt><trkpt lat="44.82920963139718" lon="4.805886936423724"><ele>107.0</ele><time>2026-04-22T16:11:23.002Z</time></trkpt><trkpt lat="44.82927716703698" lon="4.80593002878385"><ele>107.0</ele><time>2026-04-22T16:11:24.002Z</time></trkpt><trkpt lat="44.829339964064566" lon="4.805969331964009"><ele>107.0</ele><time>2026-04-22T16:11:25.002Z</time></trkpt><trkpt lat="44.82940521345843" lon="4.806013102887451"><ele>107.00000000000001</ele><time>2026-04-22T16:11:26.002Z</time></trkpt><trkpt lat="44.829468713050765" lon="4.806060170254205"><ele>107.0</ele><time>2026-04-22T16:11:27.002Z</time></trkpt><trkpt lat="44.829523227766316" lon="4.8061132516931435"><ele>105.99999999999999</ele><time>2026-04-22T16:11:28.002Z</time></trkpt><trkpt lat="44.82958287799147" lon="4.806165663576459"><ele>105.0</ele><time>2026-04-22T16:11:29.002Z</time></trkpt><trkpt lat="44.82963860681217" lon="4.806212232843262"><ele>104.0</ele><time>2026-04-22T16:11:30.002Z</time></trkpt><trkpt lat="44.829691856007955" lon="4.806261640995412"><ele>103.0</ele><time>2026-04-22T16:11:31.002Z</time></trkpt><trkpt lat="44.829804938266676" lon="4.8063600980495425"><ele>101.99999999999999</ele><time>2026-04-22T16:11:33.002Z</time></trkpt><trkpt lat="44.82986397853437" lon="4.806406831253467"><ele>101.0</ele><time>2026-04-22T16:11:34.002Z</time></trkpt><trkpt lat="44.829923848311054" lon="4.806451376880403"><ele>100.99999999999999</ele><time>2026-04-22T16:11:35.002Z</time></trkpt><trkpt lat="44.82997933228055" lon="4.806500969571998"><ele>101.0</ele><time>2026-04-22T16:11:36.003Z</time></trkpt><trkpt lat="44.830034109376214" lon="4.806547953564891"><ele>101.0</ele><time>2026-04-22T16:11:37.003Z</time></trkpt><trkpt lat="44.83009724363292" lon="4.806599116320829"><ele>101.0</ele><time>2026-04-22T16:11:38.003Z</time></trkpt><trkpt lat="44.83018074101108" lon="4.806668375589287"><ele>100.99999999999999</ele><time>2026-04-22T16:11:40.002Z</time></trkpt><trkpt lat="44.830282714501905" lon="4.806760785447668"><ele>101.0</ele><time>2026-04-22T16:11:42.003Z</time></trkpt><trkpt lat="44.8303879284174" lon="4.806839915374259"><ele>100.4</ele><time>2026-04-22T16:11:44.003Z</time></trkpt><trkpt lat="44.830502112300515" lon="4.806942656034484"><ele>99.8</ele><time>2026-04-22T16:11:46.002Z</time></trkpt><trkpt lat="44.830560114553315" lon="4.807008150554333"><ele>99.2</ele><time>2026-04-22T16:11:47.002Z</time></trkpt><trkpt lat="44.830661693791185" lon="4.807084067660595"><ele>98.60000000000001</ele><time>2026-04-22T16:11:49.002Z</time></trkpt><trkpt lat="44.83072857288602" lon="4.807119543497252"><ele>98.0</ele><time>2026-04-22T16:11:50.002Z</time></trkpt><trkpt lat="44.830783930825" lon="4.807189745735234"><ele>97.99999999999999</ele><time>2026-04-22T16:11:51.002Z</time></trkpt><trkpt lat="44.83083980871616" lon="4.807245595723534"><ele>98.0</ele><time>2026-04-22T16:11:52.002Z</time></trkpt><trkpt lat="44.83093749567085" lon="4.807319256755867"><ele>98.0</ele><time>2026-04-22T16:11:54.002Z</time></trkpt><trkpt lat="44.83104327944615" lon="4.807409426502577"><ele>98.0</ele><time>2026-04-22T16:11:56.002Z</time></trkpt><trkpt lat="44.83110245402657" lon="4.807464442096674"><ele>97.99999999999999</ele><time>2026-04-22T16:11:57.002Z</time></trkpt><trkpt lat="44.831159059925206" lon="4.807519545359063"><ele>98.0</ele><time>2026-04-22T16:11:58.002Z</time></trkpt><trkpt lat="44.831213916646135" lon="4.807577202548178"><ele>98.16666666666666</ele><time>2026-04-22T16:11:59.002Z</time></trkpt><trkpt lat="44.831334277826315" lon="4.807683795928598"><ele>98.33333333333333</ele><time>2026-04-22T16:12:01.002Z</time></trkpt><trkpt lat="44.83139545394161" lon="4.807738152790351"><ele>98.5</ele><time>2026-04-22T16:12:02.002Z</time></trkpt><trkpt lat="44.8314478000105" lon="4.807793071611464"><ele>98.66666666666666</ele><time>2026-04-22T16:12:03.002Z</time></trkpt><trkpt lat="44.83149595948562" lon="4.807855161575748"><ele>98.83333333333333</ele><time>2026-04-22T16:12:04.002Z</time></trkpt><trkpt lat="44.831539577098084" lon="4.807919980706124"><ele>99.0</ele><time>2026-04-22T16:12:05.002Z</time></trkpt><trkpt lat="44.83162491613598" lon="4.808051260060453"><ele>99.0</ele><time>2026-04-22T16:12:07.002Z</time></trkpt><trkpt lat="44.831665934519" lon="4.808119627983769"><ele>99.0</ele><time>2026-04-22T16:12:08.002Z</time></trkpt><trkpt lat="44.83173125877639" lon="4.808251076461602"><ele>99.0</ele><time>2026-04-22T16:12:10.002Z</time></trkpt><trkpt lat="44.831753370358925" lon="4.80835991099952"><ele>99.0</ele><time>2026-04-22T16:12:12.002Z</time></trkpt><trkpt lat="44.8316809880096" lon="4.8084551927154715"><ele>99.0</ele><time>2026-04-22T16:12:14.002Z</time></trkpt><trkpt lat="44.83161468338985" lon="4.8084964529083525"><ele>99.0</ele><time>2026-04-22T16:12:15.002Z</time></trkpt><trkpt lat="44.83155439554893" lon="4.808548874126049"><ele>98.71428571428572</ele><time>2026-04-22T16:12:16.002Z</time></trkpt><trkpt lat="44.8314965415184" lon="4.808616322840351"><ele>98.42857142857142</ele><time>2026-04-22T16:12:17.002Z</time></trkpt><trkpt lat="44.8314373939151" lon="4.80867803268153"><ele>98.14285714285714</ele><time>2026-04-22T16:12:18.002Z</time></trkpt><trkpt lat="44.83138594480336" lon="4.80874490045905"><ele>97.85714285714286</ele><time>2026-04-22T16:12:19.002Z</time></trkpt><trkpt lat="44.83132924613164" lon="4.808797135693504"><ele>97.57142857142858</ele><time>2026-04-22T16:12:20.002Z</time></trkpt><trkpt lat="44.83127109699017" lon="4.808856643290676"><ele>97.28571428571428</ele><time>2026-04-22T16:12:21.002Z</time></trkpt><trkpt lat="44.83121513268176" lon="4.8089268159622"><ele>97.0</ele><time>2026-04-22T16:12:22.002Z</time></trkpt><trkpt lat="44.83112115587831" lon="4.80902338886559"><ele>97.0</ele><time>2026-04-22T16:12:24.002Z</time></trkpt><trkpt lat="44.8310612993111" lon="4.809057324672622"><ele>97.0</ele><time>2026-04-22T16:12:25.002Z</time></trkpt><trkpt lat="44.83099625661151" lon="4.809077879992065"><ele>97.0</ele><time>2026-04-22T16:12:26.002Z</time></trkpt><trkpt lat="44.830881811533395" lon="4.809127267425838"><ele>97.0</ele><time>2026-04-22T16:12:28.002Z</time></trkpt><trkpt lat="44.8307810615051" lon="4.809213671611982"><ele>97.0</ele><time>2026-04-22T16:12:30.002Z</time></trkpt><trkpt lat="44.83067938396364" lon="4.8092933136615335"><ele>96.0</ele><time>2026-04-22T16:12:32.002Z</time></trkpt><trkpt lat="44.8305970362902" lon="4.809363071531994"><ele>97.0</ele><time>2026-04-22T16:12:34.002Z</time></trkpt><trkpt lat="44.83054161203084" lon="4.809414112067057"><ele>97.0</ele><time>2026-04-22T16:12:36.002Z</time></trkpt><trkpt lat="44.83052689229498" lon="4.809260203046113"><ele>96.0</ele><time>2026-04-22T16:23:43.004Z</time></trkpt><trkpt lat="44.83046332444675" lon="4.809239777264223"><ele>96.0</ele><time>2026-04-22T16:23:53.004Z</time></trkpt></trkseg></trk></gpx>